<?xml version="1.0" encoding="UTF-8" standalone="no" ?>
<gpx xmlns="http://www.topografix.com/GPX/1/1" xmlns:xsi="http://www.w3.org/2001/XMLSchema-instance" xsi:schemaLocation="http://www.topografix.com/GPX/1/1 http://www.topografix.com/GPX/1/1/gpx.xsd" version="1.1" creator="VisuGPX - https://www.visugpx.com">
  <metadata>
    <name>VTC_plateau_Onville</name>
  </metadata>
  <trk>
    <name><![CDATA[21-MAI-19 17:55:28]]></name>
    <trkseg>
      <trkpt lat="49.10171" lon="6.08692">
        <ele>234</ele>
        <time>2019-05-21T13:21:45Z</time>
      </trkpt>
      <trkpt lat="49.10169" lon="6.087">
        <ele>234</ele>
        <time>2019-05-21T13:22:01Z</time>
      </trkpt>
      <trkpt lat="49.10169" lon="6.08702">
        <ele>234</ele>
        <time>2019-05-21T13:22:17Z</time>
      </trkpt>
      <trkpt lat="49.10169" lon="6.087">
        <ele>234</ele>
        <time>2019-05-21T13:22:29Z</time>
      </trkpt>
      <trkpt lat="49.10171" lon="6.08699">
        <ele>234</ele>
        <time>2019-05-21T13:22:39Z</time>
      </trkpt>
      <trkpt lat="49.1017" lon="6.08698">
        <ele>234</ele>
        <time>2019-05-21T13:23:02Z</time>
      </trkpt>
      <trkpt lat="49.1017" lon="6.08695">
        <ele>234</ele>
        <time>2019-05-21T13:23:40Z</time>
      </trkpt>
      <trkpt lat="49.10169" lon="6.08697">
        <ele>234</ele>
        <time>2019-05-21T13:23:58Z</time>
      </trkpt>
      <trkpt lat="49.10169" lon="6.08699">
        <ele>234</ele>
        <time>2019-05-21T13:24:13Z</time>
      </trkpt>
      <trkpt lat="49.10169" lon="6.08699">
        <ele>234</ele>
        <time>2019-05-21T13:24:14Z</time>
      </trkpt>
      <trkpt lat="49.10188" lon="6.08734">
        <ele>233</ele>
        <time>2019-05-21T13:24:25Z</time>
      </trkpt>
      <trkpt lat="49.10203" lon="6.08757">
        <ele>230</ele>
        <time>2019-05-21T13:24:29Z</time>
      </trkpt>
      <trkpt lat="49.10218" lon="6.08771">
        <ele>230</ele>
        <time>2019-05-21T13:24:32Z</time>
      </trkpt>
      <trkpt lat="49.10247" lon="6.08786">
        <ele>230</ele>
        <time>2019-05-21T13:24:37Z</time>
      </trkpt>
      <trkpt lat="49.10331" lon="6.08871">
        <ele>225</ele>
        <time>2019-05-21T13:24:51Z</time>
      </trkpt>
      <trkpt lat="49.10379" lon="6.08916">
        <ele>224</ele>
        <time>2019-05-21T13:24:58Z</time>
      </trkpt>
      <trkpt lat="49.10476" lon="6.08955">
        <ele>219</ele>
        <time>2019-05-21T13:25:10Z</time>
      </trkpt>
      <trkpt lat="49.10501" lon="6.0895">
        <ele>220</ele>
        <time>2019-05-21T13:25:15Z</time>
      </trkpt>
      <trkpt lat="49.10518" lon="6.08886">
        <ele>223</ele>
        <time>2019-05-21T13:25:26Z</time>
      </trkpt>
      <trkpt lat="49.10543" lon="6.08795">
        <ele>225</ele>
        <time>2019-05-21T13:25:44Z</time>
      </trkpt>
      <trkpt lat="49.10557" lon="6.08742">
        <ele>223</ele>
        <time>2019-05-21T13:25:54Z</time>
      </trkpt>
      <trkpt lat="49.10555" lon="6.08689">
        <ele>223</ele>
        <time>2019-05-21T13:26:01Z</time>
      </trkpt>
      <trkpt lat="49.10555" lon="6.08653">
        <ele>222</ele>
        <time>2019-05-21T13:26:08Z</time>
      </trkpt>
      <trkpt lat="49.10558" lon="6.08635">
        <ele>222</ele>
        <time>2019-05-21T13:26:14Z</time>
      </trkpt>
      <trkpt lat="49.10531" lon="6.08594">
        <ele>225</ele>
        <time>2019-05-21T13:26:27Z</time>
      </trkpt>
      <trkpt lat="49.10494" lon="6.0854">
        <ele>234</ele>
        <time>2019-05-21T13:26:44Z</time>
      </trkpt>
      <trkpt lat="49.10452" lon="6.08479">
        <ele>235</ele>
        <time>2019-05-21T13:27:03Z</time>
      </trkpt>
      <trkpt lat="49.10417" lon="6.08418">
        <ele>241</ele>
        <time>2019-05-21T13:27:21Z</time>
      </trkpt>
      <trkpt lat="49.10389" lon="6.08357">
        <ele>251</ele>
        <time>2019-05-21T13:27:39Z</time>
      </trkpt>
      <trkpt lat="49.10378" lon="6.08317">
        <ele>253</ele>
        <time>2019-05-21T13:27:51Z</time>
      </trkpt>
      <trkpt lat="49.10375" lon="6.08269">
        <ele>253</ele>
        <time>2019-05-21T13:28:05Z</time>
      </trkpt>
      <trkpt lat="49.10365" lon="6.08198">
        <ele>254</ele>
        <time>2019-05-21T13:28:19Z</time>
      </trkpt>
      <trkpt lat="49.1036" lon="6.08146">
        <ele>256</ele>
        <time>2019-05-21T13:28:30Z</time>
      </trkpt>
      <trkpt lat="49.10356" lon="6.08101">
        <ele>259</ele>
        <time>2019-05-21T13:28:41Z</time>
      </trkpt>
      <trkpt lat="49.10353" lon="6.08043">
        <ele>259</ele>
        <time>2019-05-21T13:28:55Z</time>
      </trkpt>
      <trkpt lat="49.10353" lon="6.08001">
        <ele>262</ele>
        <time>2019-05-21T13:29:06Z</time>
      </trkpt>
      <trkpt lat="49.10349" lon="6.07939">
        <ele>260</ele>
        <time>2019-05-21T13:29:20Z</time>
      </trkpt>
      <trkpt lat="49.10332" lon="6.07863">
        <ele>274</ele>
        <time>2019-05-21T13:29:35Z</time>
      </trkpt>
      <trkpt lat="49.10313" lon="6.07803">
        <ele>273</ele>
        <time>2019-05-21T13:29:49Z</time>
      </trkpt>
      <trkpt lat="49.10294" lon="6.0775">
        <ele>274</ele>
        <time>2019-05-21T13:30:02Z</time>
      </trkpt>
      <trkpt lat="49.10276" lon="6.07698">
        <ele>274</ele>
        <time>2019-05-21T13:30:15Z</time>
      </trkpt>
      <trkpt lat="49.10257" lon="6.0763">
        <ele>272</ele>
        <time>2019-05-21T13:30:31Z</time>
      </trkpt>
      <trkpt lat="49.10248" lon="6.07569">
        <ele>282</ele>
        <time>2019-05-21T13:30:46Z</time>
      </trkpt>
      <trkpt lat="49.10242" lon="6.07502">
        <ele>280</ele>
        <time>2019-05-21T13:31:00Z</time>
      </trkpt>
      <trkpt lat="49.10244" lon="6.07437">
        <ele>282</ele>
        <time>2019-05-21T13:31:14Z</time>
      </trkpt>
      <trkpt lat="49.10251" lon="6.07368">
        <ele>274</ele>
        <time>2019-05-21T13:31:29Z</time>
      </trkpt>
      <trkpt lat="49.10268" lon="6.07301">
        <ele>280</ele>
        <time>2019-05-21T13:31:45Z</time>
      </trkpt>
      <trkpt lat="49.10295" lon="6.07236">
        <ele>287</ele>
        <time>2019-05-21T13:32:03Z</time>
      </trkpt>
      <trkpt lat="49.10322" lon="6.07191">
        <ele>288</ele>
        <time>2019-05-21T13:32:17Z</time>
      </trkpt>
      <trkpt lat="49.10365" lon="6.07138">
        <ele>296</ele>
        <time>2019-05-21T13:32:36Z</time>
      </trkpt>
      <trkpt lat="49.10413" lon="6.07097">
        <ele>299</ele>
        <time>2019-05-21T13:32:55Z</time>
      </trkpt>
      <trkpt lat="49.10455" lon="6.07064">
        <ele>303</ele>
        <time>2019-05-21T13:33:12Z</time>
      </trkpt>
      <trkpt lat="49.10504" lon="6.07026">
        <ele>300</ele>
        <time>2019-05-21T13:33:31Z</time>
      </trkpt>
      <trkpt lat="49.10556" lon="6.06985">
        <ele>306</ele>
        <time>2019-05-21T13:33:51Z</time>
      </trkpt>
      <trkpt lat="49.106" lon="6.0695">
        <ele>305</ele>
        <time>2019-05-21T13:34:09Z</time>
      </trkpt>
      <trkpt lat="49.10644" lon="6.06912">
        <ele>312</ele>
        <time>2019-05-21T13:34:28Z</time>
      </trkpt>
      <trkpt lat="49.10681" lon="6.06867">
        <ele>310</ele>
        <time>2019-05-21T13:34:44Z</time>
      </trkpt>
      <trkpt lat="49.10719" lon="6.068">
        <ele>314</ele>
        <time>2019-05-21T13:35:04Z</time>
      </trkpt>
      <trkpt lat="49.10743" lon="6.06734">
        <ele>318</ele>
        <time>2019-05-21T13:35:21Z</time>
      </trkpt>
      <trkpt lat="49.1076" lon="6.06657">
        <ele>319</ele>
        <time>2019-05-21T13:35:39Z</time>
      </trkpt>
      <trkpt lat="49.10767" lon="6.06572">
        <ele>322</ele>
        <time>2019-05-21T13:35:56Z</time>
      </trkpt>
      <trkpt lat="49.10773" lon="6.06473">
        <ele>323</ele>
        <time>2019-05-21T13:36:13Z</time>
      </trkpt>
      <trkpt lat="49.10779" lon="6.06355">
        <ele>322</ele>
        <time>2019-05-21T13:36:31Z</time>
      </trkpt>
      <trkpt lat="49.10791" lon="6.06206">
        <ele>321</ele>
        <time>2019-05-21T13:36:52Z</time>
      </trkpt>
      <trkpt lat="49.10795" lon="6.06185">
        <ele>321</ele>
        <time>2019-05-21T13:36:55Z</time>
      </trkpt>
      <trkpt lat="49.10808" lon="6.06136">
        <ele>324</ele>
        <time>2019-05-21T13:37:03Z</time>
      </trkpt>
      <trkpt lat="49.10841" lon="6.0606">
        <ele>328</ele>
        <time>2019-05-21T13:37:19Z</time>
      </trkpt>
      <trkpt lat="49.10884" lon="6.05984">
        <ele>334</ele>
        <time>2019-05-21T13:37:38Z</time>
      </trkpt>
      <trkpt lat="49.10933" lon="6.059">
        <ele>335</ele>
        <time>2019-05-21T13:37:59Z</time>
      </trkpt>
      <trkpt lat="49.10992" lon="6.05799">
        <ele>336</ele>
        <time>2019-05-21T13:38:20Z</time>
      </trkpt>
      <trkpt lat="49.11058" lon="6.05688">
        <ele>337</ele>
        <time>2019-05-21T13:38:40Z</time>
      </trkpt>
      <trkpt lat="49.1112" lon="6.05597">
        <ele>339</ele>
        <time>2019-05-21T13:38:55Z</time>
      </trkpt>
      <trkpt lat="49.11206" lon="6.05503">
        <ele>336</ele>
        <time>2019-05-21T13:39:13Z</time>
      </trkpt>
      <trkpt lat="49.11309" lon="6.0544">
        <ele>334</ele>
        <time>2019-05-21T13:39:31Z</time>
      </trkpt>
      <trkpt lat="49.11427" lon="6.05392">
        <ele>332</ele>
        <time>2019-05-21T13:39:50Z</time>
      </trkpt>
      <trkpt lat="49.11534" lon="6.05349">
        <ele>332</ele>
        <time>2019-05-21T13:40:08Z</time>
      </trkpt>
      <trkpt lat="49.11657" lon="6.05283">
        <ele>327</ele>
        <time>2019-05-21T13:40:27Z</time>
      </trkpt>
      <trkpt lat="49.11749" lon="6.05182">
        <ele>321</ele>
        <time>2019-05-21T13:40:42Z</time>
      </trkpt>
      <trkpt lat="49.11821" lon="6.05029">
        <ele>313</ele>
        <time>2019-05-21T13:40:57Z</time>
      </trkpt>
      <trkpt lat="49.11856" lon="6.04873">
        <ele>305</ele>
        <time>2019-05-21T13:41:10Z</time>
      </trkpt>
      <trkpt lat="49.11879" lon="6.04703">
        <ele>302</ele>
        <time>2019-05-21T13:41:22Z</time>
      </trkpt>
      <trkpt lat="49.11895" lon="6.04511">
        <ele>295</ele>
        <time>2019-05-21T13:41:33Z</time>
      </trkpt>
      <trkpt lat="49.11881" lon="6.04248">
        <ele>282</ele>
        <time>2019-05-21T13:41:46Z</time>
      </trkpt>
      <trkpt lat="49.11826" lon="6.03996">
        <ele>258</ele>
        <time>2019-05-21T13:41:59Z</time>
      </trkpt>
      <trkpt lat="49.11784" lon="6.03881">
        <ele>267</ele>
        <time>2019-05-21T13:42:08Z</time>
      </trkpt>
      <trkpt lat="49.11736" lon="6.03775">
        <ele>274</ele>
        <time>2019-05-21T13:42:22Z</time>
      </trkpt>
      <trkpt lat="49.11733" lon="6.03769">
        <ele>275</ele>
        <time>2019-05-21T13:42:23Z</time>
      </trkpt>
      <trkpt lat="49.11701" lon="6.03711">
        <ele>278</ele>
        <time>2019-05-21T13:42:35Z</time>
      </trkpt>
      <trkpt lat="49.11673" lon="6.03649">
        <ele>279</ele>
        <time>2019-05-21T13:42:49Z</time>
      </trkpt>
      <trkpt lat="49.11643" lon="6.03579">
        <ele>282</ele>
        <time>2019-05-21T13:43:05Z</time>
      </trkpt>
      <trkpt lat="49.1161" lon="6.0351">
        <ele>286</ele>
        <time>2019-05-21T13:43:22Z</time>
      </trkpt>
      <trkpt lat="49.11593" lon="6.03471">
        <ele>288</ele>
        <time>2019-05-21T13:43:34Z</time>
      </trkpt>
      <trkpt lat="49.11574" lon="6.0343">
        <ele>292</ele>
        <time>2019-05-21T13:43:47Z</time>
      </trkpt>
      <trkpt lat="49.11552" lon="6.03387">
        <ele>295</ele>
        <time>2019-05-21T13:43:58Z</time>
      </trkpt>
      <trkpt lat="49.11525" lon="6.03331">
        <ele>297</ele>
        <time>2019-05-21T13:44:12Z</time>
      </trkpt>
      <trkpt lat="49.11499" lon="6.0327">
        <ele>298</ele>
        <time>2019-05-21T13:44:27Z</time>
      </trkpt>
      <trkpt lat="49.11472" lon="6.03209">
        <ele>298</ele>
        <time>2019-05-21T13:44:42Z</time>
      </trkpt>
      <trkpt lat="49.11445" lon="6.0315">
        <ele>298</ele>
        <time>2019-05-21T13:44:56Z</time>
      </trkpt>
      <trkpt lat="49.11409" lon="6.03074">
        <ele>299</ele>
        <time>2019-05-21T13:45:12Z</time>
      </trkpt>
      <trkpt lat="49.1136" lon="6.02974">
        <ele>297</ele>
        <time>2019-05-21T13:45:30Z</time>
      </trkpt>
      <trkpt lat="49.11327" lon="6.02902">
        <ele>297</ele>
        <time>2019-05-21T13:45:43Z</time>
      </trkpt>
      <trkpt lat="49.11304" lon="6.02853">
        <ele>296</ele>
        <time>2019-05-21T13:45:54Z</time>
      </trkpt>
      <trkpt lat="49.11316" lon="6.0281">
        <ele>295</ele>
        <time>2019-05-21T13:46:01Z</time>
      </trkpt>
      <trkpt lat="49.11393" lon="6.02742">
        <ele>293</ele>
        <time>2019-05-21T13:46:16Z</time>
      </trkpt>
      <trkpt lat="49.1149" lon="6.02663">
        <ele>293</ele>
        <time>2019-05-21T13:46:33Z</time>
      </trkpt>
      <trkpt lat="49.11563" lon="6.02604">
        <ele>294</ele>
        <time>2019-05-21T13:46:47Z</time>
      </trkpt>
      <trkpt lat="49.11634" lon="6.02546">
        <ele>297</ele>
        <time>2019-05-21T13:47:06Z</time>
      </trkpt>
      <trkpt lat="49.11694" lon="6.02497">
        <ele>301</ele>
        <time>2019-05-21T13:47:27Z</time>
      </trkpt>
      <trkpt lat="49.11747" lon="6.02455">
        <ele>303</ele>
        <time>2019-05-21T13:47:47Z</time>
      </trkpt>
      <trkpt lat="49.11791" lon="6.02419">
        <ele>306</ele>
        <time>2019-05-21T13:48:03Z</time>
      </trkpt>
      <trkpt lat="49.11839" lon="6.02386">
        <ele>306</ele>
        <time>2019-05-21T13:48:19Z</time>
      </trkpt>
      <trkpt lat="49.11899" lon="6.02348">
        <ele>305</ele>
        <time>2019-05-21T13:48:33Z</time>
      </trkpt>
      <trkpt lat="49.12013" lon="6.02276">
        <ele>305</ele>
        <time>2019-05-21T13:48:55Z</time>
      </trkpt>
      <trkpt lat="49.12116" lon="6.0221">
        <ele>306</ele>
        <time>2019-05-21T13:49:16Z</time>
      </trkpt>
      <trkpt lat="49.12203" lon="6.02155">
        <ele>307</ele>
        <time>2019-05-21T13:49:36Z</time>
      </trkpt>
      <trkpt lat="49.12269" lon="6.02109">
        <ele>310</ele>
        <time>2019-05-21T13:49:55Z</time>
      </trkpt>
      <trkpt lat="49.12312" lon="6.02053">
        <ele>313</ele>
        <time>2019-05-21T13:50:12Z</time>
      </trkpt>
      <trkpt lat="49.12351" lon="6.01979">
        <ele>316</ele>
        <time>2019-05-21T13:50:31Z</time>
      </trkpt>
      <trkpt lat="49.12394" lon="6.019">
        <ele>317</ele>
        <time>2019-05-21T13:50:50Z</time>
      </trkpt>
      <trkpt lat="49.12408" lon="6.01871">
        <ele>317</ele>
        <time>2019-05-21T13:50:56Z</time>
      </trkpt>
      <trkpt lat="49.12449" lon="6.01753">
        <ele>317</ele>
        <time>2019-05-21T13:51:14Z</time>
      </trkpt>
      <trkpt lat="49.12484" lon="6.01619">
        <ele>316</ele>
        <time>2019-05-21T13:51:33Z</time>
      </trkpt>
      <trkpt lat="49.12516" lon="6.01481">
        <ele>313</ele>
        <time>2019-05-21T13:51:50Z</time>
      </trkpt>
      <trkpt lat="49.12558" lon="6.01307">
        <ele>309</ele>
        <time>2019-05-21T13:52:10Z</time>
      </trkpt>
      <trkpt lat="49.126" lon="6.01129">
        <ele>307</ele>
        <time>2019-05-21T13:52:30Z</time>
      </trkpt>
      <trkpt lat="49.12631" lon="6.00988">
        <ele>305</ele>
        <time>2019-05-21T13:52:47Z</time>
      </trkpt>
      <trkpt lat="49.12627" lon="6.00851">
        <ele>303</ele>
        <time>2019-05-21T13:53:01Z</time>
      </trkpt>
      <trkpt lat="49.12605" lon="6.00703">
        <ele>300</ele>
        <time>2019-05-21T13:53:18Z</time>
      </trkpt>
      <trkpt lat="49.12577" lon="6.00512">
        <ele>297</ele>
        <time>2019-05-21T13:53:39Z</time>
      </trkpt>
      <trkpt lat="49.1255" lon="6.00333">
        <ele>295</ele>
        <time>2019-05-21T13:53:58Z</time>
      </trkpt>
      <trkpt lat="49.12532" lon="6.00204">
        <ele>293</ele>
        <time>2019-05-21T13:54:12Z</time>
      </trkpt>
      <trkpt lat="49.12508" lon="6.00047">
        <ele>292</ele>
        <time>2019-05-21T13:54:27Z</time>
      </trkpt>
      <trkpt lat="49.12479" lon="5.99841">
        <ele>285</ele>
        <time>2019-05-21T13:54:45Z</time>
      </trkpt>
      <trkpt lat="49.12451" lon="5.99653">
        <ele>282</ele>
        <time>2019-05-21T13:55:00Z</time>
      </trkpt>
      <trkpt lat="49.12439" lon="5.99487">
        <ele>283</ele>
        <time>2019-05-21T13:55:16Z</time>
      </trkpt>
      <trkpt lat="49.12439" lon="5.99334">
        <ele>283</ele>
        <time>2019-05-21T13:55:34Z</time>
      </trkpt>
      <trkpt lat="49.12439" lon="5.99187">
        <ele>286</ele>
        <time>2019-05-21T13:55:55Z</time>
      </trkpt>
      <trkpt lat="49.1244" lon="5.99088">
        <ele>289</ele>
        <time>2019-05-21T13:56:12Z</time>
      </trkpt>
      <trkpt lat="49.12441" lon="5.98985">
        <ele>291</ele>
        <time>2019-05-21T13:56:31Z</time>
      </trkpt>
      <trkpt lat="49.12442" lon="5.98887">
        <ele>293</ele>
        <time>2019-05-21T13:56:49Z</time>
      </trkpt>
      <trkpt lat="49.12443" lon="5.98803">
        <ele>294</ele>
        <time>2019-05-21T13:57:04Z</time>
      </trkpt>
      <trkpt lat="49.12444" lon="5.98662">
        <ele>297</ele>
        <time>2019-05-21T13:57:30Z</time>
      </trkpt>
      <trkpt lat="49.12444" lon="5.98566">
        <ele>298</ele>
        <time>2019-05-21T13:57:47Z</time>
      </trkpt>
      <trkpt lat="49.12442" lon="5.98457">
        <ele>298</ele>
        <time>2019-05-21T13:58:07Z</time>
      </trkpt>
      <trkpt lat="49.12442" lon="5.98453">
        <ele>298</ele>
        <time>2019-05-21T13:58:08Z</time>
      </trkpt>
      <trkpt lat="49.12437" lon="5.98433">
        <ele>297</ele>
        <time>2019-05-21T13:58:12Z</time>
      </trkpt>
      <trkpt lat="49.12423" lon="5.98366">
        <ele>297</ele>
        <time>2019-05-21T13:58:25Z</time>
      </trkpt>
      <trkpt lat="49.12403" lon="5.98303">
        <ele>299</ele>
        <time>2019-05-21T13:58:38Z</time>
      </trkpt>
      <trkpt lat="49.12376" lon="5.98222">
        <ele>301</ele>
        <time>2019-05-21T13:58:56Z</time>
      </trkpt>
      <trkpt lat="49.12357" lon="5.98164">
        <ele>303</ele>
        <time>2019-05-21T13:59:11Z</time>
      </trkpt>
      <trkpt lat="49.12334" lon="5.98097">
        <ele>304</ele>
        <time>2019-05-21T13:59:29Z</time>
      </trkpt>
      <trkpt lat="49.12314" lon="5.98031">
        <ele>307</ele>
        <time>2019-05-21T13:59:46Z</time>
      </trkpt>
      <trkpt lat="49.12293" lon="5.97953">
        <ele>306</ele>
        <time>2019-05-21T14:00:04Z</time>
      </trkpt>
      <trkpt lat="49.12275" lon="5.97895">
        <ele>305</ele>
        <time>2019-05-21T14:00:19Z</time>
      </trkpt>
      <trkpt lat="49.12256" lon="5.97831">
        <ele>305</ele>
        <time>2019-05-21T14:00:35Z</time>
      </trkpt>
      <trkpt lat="49.12232" lon="5.97729">
        <ele>303</ele>
        <time>2019-05-21T14:00:51Z</time>
      </trkpt>
      <trkpt lat="49.12213" lon="5.97624">
        <ele>301</ele>
        <time>2019-05-21T14:01:06Z</time>
      </trkpt>
      <trkpt lat="49.12204" lon="5.9757">
        <ele>300</ele>
        <time>2019-05-21T14:01:13Z</time>
      </trkpt>
      <trkpt lat="49.12196" lon="5.97524">
        <ele>299</ele>
        <time>2019-05-21T14:01:20Z</time>
      </trkpt>
      <trkpt lat="49.12189" lon="5.97481">
        <ele>298</ele>
        <time>2019-05-21T14:01:27Z</time>
      </trkpt>
      <trkpt lat="49.12186" lon="5.97456">
        <ele>298</ele>
        <time>2019-05-21T14:01:31Z</time>
      </trkpt>
      <trkpt lat="49.12177" lon="5.97345">
        <ele>297</ele>
        <time>2019-05-21T14:01:46Z</time>
      </trkpt>
      <trkpt lat="49.12163" lon="5.97162">
        <ele>295</ele>
        <time>2019-05-21T14:02:06Z</time>
      </trkpt>
      <trkpt lat="49.12152" lon="5.97011">
        <ele>291</ele>
        <time>2019-05-21T14:02:22Z</time>
      </trkpt>
      <trkpt lat="49.12154" lon="5.96848">
        <ele>288</ele>
        <time>2019-05-21T14:02:38Z</time>
      </trkpt>
      <trkpt lat="49.12158" lon="5.96672">
        <ele>284</ele>
        <time>2019-05-21T14:02:55Z</time>
      </trkpt>
      <trkpt lat="49.12162" lon="5.96514">
        <ele>281</ele>
        <time>2019-05-21T14:03:10Z</time>
      </trkpt>
      <trkpt lat="49.12166" lon="5.96326">
        <ele>278</ele>
        <time>2019-05-21T14:03:28Z</time>
      </trkpt>
      <trkpt lat="49.1217" lon="5.96115">
        <ele>275</ele>
        <time>2019-05-21T14:03:49Z</time>
      </trkpt>
      <trkpt lat="49.12174" lon="5.95927">
        <ele>273</ele>
        <time>2019-05-21T14:04:08Z</time>
      </trkpt>
      <trkpt lat="49.12178" lon="5.95722">
        <ele>271</ele>
        <time>2019-05-21T14:04:29Z</time>
      </trkpt>
      <trkpt lat="49.12181" lon="5.95566">
        <ele>270</ele>
        <time>2019-05-21T14:04:46Z</time>
      </trkpt>
      <trkpt lat="49.12186" lon="5.95412">
        <ele>267</ele>
        <time>2019-05-21T14:05:04Z</time>
      </trkpt>
      <trkpt lat="49.12179" lon="5.95293">
        <ele>265</ele>
        <time>2019-05-21T14:05:18Z</time>
      </trkpt>
      <trkpt lat="49.12165" lon="5.95159">
        <ele>263</ele>
        <time>2019-05-21T14:05:32Z</time>
      </trkpt>
      <trkpt lat="49.12161" lon="5.95006">
        <ele>259</ele>
        <time>2019-05-21T14:05:48Z</time>
      </trkpt>
      <trkpt lat="49.12147" lon="5.94843">
        <ele>254</ele>
        <time>2019-05-21T14:06:03Z</time>
      </trkpt>
      <trkpt lat="49.12139" lon="5.94759">
        <ele>254</ele>
        <time>2019-05-21T14:06:13Z</time>
      </trkpt>
      <trkpt lat="49.12132" lon="5.94652">
        <ele>257</ele>
        <time>2019-05-21T14:06:29Z</time>
      </trkpt>
      <trkpt lat="49.12123" lon="5.94551">
        <ele>259</ele>
        <time>2019-05-21T14:06:48Z</time>
      </trkpt>
      <trkpt lat="49.12114" lon="5.94464">
        <ele>260</ele>
        <time>2019-05-21T14:07:04Z</time>
      </trkpt>
      <trkpt lat="49.12106" lon="5.94379">
        <ele>260</ele>
        <time>2019-05-21T14:07:20Z</time>
      </trkpt>
      <trkpt lat="49.12103" lon="5.94269">
        <ele>261</ele>
        <time>2019-05-21T14:07:40Z</time>
      </trkpt>
      <trkpt lat="49.12101" lon="5.94165">
        <ele>262</ele>
        <time>2019-05-21T14:07:57Z</time>
      </trkpt>
      <trkpt lat="49.12097" lon="5.94043">
        <ele>261</ele>
        <time>2019-05-21T14:08:15Z</time>
      </trkpt>
      <trkpt lat="49.12095" lon="5.93991">
        <ele>260</ele>
        <time>2019-05-21T14:08:23Z</time>
      </trkpt>
      <trkpt lat="49.12094" lon="5.93875">
        <ele>258</ele>
        <time>2019-05-21T14:08:38Z</time>
      </trkpt>
      <trkpt lat="49.12086" lon="5.93741">
        <ele>256</ele>
        <time>2019-05-21T14:08:53Z</time>
      </trkpt>
      <trkpt lat="49.12078" lon="5.93591">
        <ele>253</ele>
        <time>2019-05-21T14:09:11Z</time>
      </trkpt>
      <trkpt lat="49.1208" lon="5.93447">
        <ele>255</ele>
        <time>2019-05-21T14:09:28Z</time>
      </trkpt>
      <trkpt lat="49.12081" lon="5.93433">
        <ele>254</ele>
        <time>2019-05-21T14:09:30Z</time>
      </trkpt>
      <trkpt lat="49.12078" lon="5.93284">
        <ele>255</ele>
        <time>2019-05-21T14:09:50Z</time>
      </trkpt>
      <trkpt lat="49.12077" lon="5.9323">
        <ele>254</ele>
        <time>2019-05-21T14:09:57Z</time>
      </trkpt>
      <trkpt lat="49.12075" lon="5.93208">
        <ele>253</ele>
        <time>2019-05-21T14:10:00Z</time>
      </trkpt>
      <trkpt lat="49.12078" lon="5.93103">
        <ele>251</ele>
        <time>2019-05-21T14:10:14Z</time>
      </trkpt>
      <trkpt lat="49.1209" lon="5.92992">
        <ele>249</ele>
        <time>2019-05-21T14:10:27Z</time>
      </trkpt>
      <trkpt lat="49.12076" lon="5.92872">
        <ele>250</ele>
        <time>2019-05-21T14:10:39Z</time>
      </trkpt>
      <trkpt lat="49.1206" lon="5.92798">
        <ele>250</ele>
        <time>2019-05-21T14:10:49Z</time>
      </trkpt>
      <trkpt lat="49.12039" lon="5.92686">
        <ele>253</ele>
        <time>2019-05-21T14:11:08Z</time>
      </trkpt>
      <trkpt lat="49.12034" lon="5.92584">
        <ele>254</ele>
        <time>2019-05-21T14:11:25Z</time>
      </trkpt>
      <trkpt lat="49.12044" lon="5.92456">
        <ele>253</ele>
        <time>2019-05-21T14:11:45Z</time>
      </trkpt>
      <trkpt lat="49.12054" lon="5.92408">
        <ele>253</ele>
        <time>2019-05-21T14:11:53Z</time>
      </trkpt>
      <trkpt lat="49.12069" lon="5.92367">
        <ele>253</ele>
        <time>2019-05-21T14:12:00Z</time>
      </trkpt>
      <trkpt lat="49.12085" lon="5.92342">
        <ele>252</ele>
        <time>2019-05-21T14:12:05Z</time>
      </trkpt>
      <trkpt lat="49.12151" lon="5.92252">
        <ele>251</ele>
        <time>2019-05-21T14:12:23Z</time>
      </trkpt>
      <trkpt lat="49.12161" lon="5.92236">
        <ele>250</ele>
        <time>2019-05-21T14:12:26Z</time>
      </trkpt>
      <trkpt lat="49.1217" lon="5.9222">
        <ele>249</ele>
        <time>2019-05-21T14:12:29Z</time>
      </trkpt>
      <trkpt lat="49.12187" lon="5.9219">
        <ele>249</ele>
        <time>2019-05-21T14:12:35Z</time>
      </trkpt>
      <trkpt lat="49.12197" lon="5.92167">
        <ele>249</ele>
        <time>2019-05-21T14:12:39Z</time>
      </trkpt>
      <trkpt lat="49.12201" lon="5.92154">
        <ele>249</ele>
        <time>2019-05-21T14:12:41Z</time>
      </trkpt>
      <trkpt lat="49.12206" lon="5.92133">
        <ele>249</ele>
        <time>2019-05-21T14:12:44Z</time>
      </trkpt>
      <trkpt lat="49.12213" lon="5.92074">
        <ele>248</ele>
        <time>2019-05-21T14:12:52Z</time>
      </trkpt>
      <trkpt lat="49.12214" lon="5.92054">
        <ele>248</ele>
        <time>2019-05-21T14:12:55Z</time>
      </trkpt>
      <trkpt lat="49.12223" lon="5.91916">
        <ele>247</ele>
        <time>2019-05-21T14:13:14Z</time>
      </trkpt>
      <trkpt lat="49.12225" lon="5.91876">
        <ele>247</ele>
        <time>2019-05-21T14:13:19Z</time>
      </trkpt>
      <trkpt lat="49.12226" lon="5.91717">
        <ele>246</ele>
        <time>2019-05-21T14:13:38Z</time>
      </trkpt>
      <trkpt lat="49.12224" lon="5.91702">
        <ele>246</ele>
        <time>2019-05-21T14:13:40Z</time>
      </trkpt>
      <trkpt lat="49.12207" lon="5.91586">
        <ele>245</ele>
        <time>2019-05-21T14:13:57Z</time>
      </trkpt>
      <trkpt lat="49.12211" lon="5.9155">
        <ele>244</ele>
        <time>2019-05-21T14:14:04Z</time>
      </trkpt>
      <trkpt lat="49.12203" lon="5.91514">
        <ele>244</ele>
        <time>2019-05-21T14:14:10Z</time>
      </trkpt>
      <trkpt lat="49.12198" lon="5.91502">
        <ele>244</ele>
        <time>2019-05-21T14:14:12Z</time>
      </trkpt>
      <trkpt lat="49.12188" lon="5.914">
        <ele>243</ele>
        <time>2019-05-21T14:14:25Z</time>
      </trkpt>
      <trkpt lat="49.12188" lon="5.91359">
        <ele>243</ele>
        <time>2019-05-21T14:14:30Z</time>
      </trkpt>
      <trkpt lat="49.1217" lon="5.91312">
        <ele>243</ele>
        <time>2019-05-21T14:14:37Z</time>
      </trkpt>
      <trkpt lat="49.12095" lon="5.91234">
        <ele>241</ele>
        <time>2019-05-21T14:14:51Z</time>
      </trkpt>
      <trkpt lat="49.12034" lon="5.91168">
        <ele>242</ele>
        <time>2019-05-21T14:15:04Z</time>
      </trkpt>
      <trkpt lat="49.11952" lon="5.91081">
        <ele>244</ele>
        <time>2019-05-21T14:15:22Z</time>
      </trkpt>
      <trkpt lat="49.11862" lon="5.90985">
        <ele>244</ele>
        <time>2019-05-21T14:15:41Z</time>
      </trkpt>
      <trkpt lat="49.11775" lon="5.90894">
        <ele>243</ele>
        <time>2019-05-21T14:15:59Z</time>
      </trkpt>
      <trkpt lat="49.11694" lon="5.90809">
        <ele>242</ele>
        <time>2019-05-21T14:16:16Z</time>
      </trkpt>
      <trkpt lat="49.11621" lon="5.90731">
        <ele>243</ele>
        <time>2019-05-21T14:16:31Z</time>
      </trkpt>
      <trkpt lat="49.1155" lon="5.90657">
        <ele>245</ele>
        <time>2019-05-21T14:16:47Z</time>
      </trkpt>
      <trkpt lat="49.1148" lon="5.90582">
        <ele>245</ele>
        <time>2019-05-21T14:17:03Z</time>
      </trkpt>
      <trkpt lat="49.11393" lon="5.90489">
        <ele>245</ele>
        <time>2019-05-21T14:17:22Z</time>
      </trkpt>
      <trkpt lat="49.1132" lon="5.90411">
        <ele>244</ele>
        <time>2019-05-21T14:17:38Z</time>
      </trkpt>
      <trkpt lat="49.11306" lon="5.90399">
        <ele>244</ele>
        <time>2019-05-21T14:17:41Z</time>
      </trkpt>
      <trkpt lat="49.11228" lon="5.90395">
        <ele>244</ele>
        <time>2019-05-21T14:17:55Z</time>
      </trkpt>
      <trkpt lat="49.11207" lon="5.90399">
        <ele>245</ele>
        <time>2019-05-21T14:17:59Z</time>
      </trkpt>
      <trkpt lat="49.11187" lon="5.90402">
        <ele>245</ele>
        <time>2019-05-21T14:18:03Z</time>
      </trkpt>
      <trkpt lat="49.11154" lon="5.90409">
        <ele>245</ele>
        <time>2019-05-21T14:18:10Z</time>
      </trkpt>
      <trkpt lat="49.11072" lon="5.90418">
        <ele>240</ele>
        <time>2019-05-21T14:18:23Z</time>
      </trkpt>
      <trkpt lat="49.11027" lon="5.90377">
        <ele>237</ele>
        <time>2019-05-21T14:18:29Z</time>
      </trkpt>
      <trkpt lat="49.10981" lon="5.90288">
        <ele>232</ele>
        <time>2019-05-21T14:18:36Z</time>
      </trkpt>
      <trkpt lat="49.10961" lon="5.90157">
        <ele>230</ele>
        <time>2019-05-21T14:18:44Z</time>
      </trkpt>
      <trkpt lat="49.10972" lon="5.8995">
        <ele>229</ele>
        <time>2019-05-21T14:18:57Z</time>
      </trkpt>
      <trkpt lat="49.10971" lon="5.8992">
        <ele>228</ele>
        <time>2019-05-21T14:19:00Z</time>
      </trkpt>
      <trkpt lat="49.10941" lon="5.89802">
        <ele>227</ele>
        <time>2019-05-21T14:19:15Z</time>
      </trkpt>
      <trkpt lat="49.10911" lon="5.89715">
        <ele>232</ele>
        <time>2019-05-21T14:19:30Z</time>
      </trkpt>
      <trkpt lat="49.10893" lon="5.89662">
        <ele>234</ele>
        <time>2019-05-21T14:19:43Z</time>
      </trkpt>
      <trkpt lat="49.10867" lon="5.89599">
        <ele>235</ele>
        <time>2019-05-21T14:19:59Z</time>
      </trkpt>
      <trkpt lat="49.10831" lon="5.89557">
        <ele>237</ele>
        <time>2019-05-21T14:20:13Z</time>
      </trkpt>
      <trkpt lat="49.10787" lon="5.89545">
        <ele>238</ele>
        <time>2019-05-21T14:20:27Z</time>
      </trkpt>
      <trkpt lat="49.10738" lon="5.89558">
        <ele>240</ele>
        <time>2019-05-21T14:20:42Z</time>
      </trkpt>
      <trkpt lat="49.1068" lon="5.89575">
        <ele>241</ele>
        <time>2019-05-21T14:20:59Z</time>
      </trkpt>
      <trkpt lat="49.10617" lon="5.89595">
        <ele>244</ele>
        <time>2019-05-21T14:21:16Z</time>
      </trkpt>
      <trkpt lat="49.10592" lon="5.89602">
        <ele>244</ele>
        <time>2019-05-21T14:21:22Z</time>
      </trkpt>
      <trkpt lat="49.1056" lon="5.89601">
        <ele>244</ele>
        <time>2019-05-21T14:21:29Z</time>
      </trkpt>
      <trkpt lat="49.1053" lon="5.89575">
        <ele>243</ele>
        <time>2019-05-21T14:21:36Z</time>
      </trkpt>
      <trkpt lat="49.10486" lon="5.89468">
        <ele>242</ele>
        <time>2019-05-21T14:21:51Z</time>
      </trkpt>
      <trkpt lat="49.1046" lon="5.89401">
        <ele>241</ele>
        <time>2019-05-21T14:22:00Z</time>
      </trkpt>
      <trkpt lat="49.10409" lon="5.89273">
        <ele>237</ele>
        <time>2019-05-21T14:22:15Z</time>
      </trkpt>
      <trkpt lat="49.10358" lon="5.89144">
        <ele>234</ele>
        <time>2019-05-21T14:22:29Z</time>
      </trkpt>
      <trkpt lat="49.10344" lon="5.89111">
        <ele>234</ele>
        <time>2019-05-21T14:22:33Z</time>
      </trkpt>
      <trkpt lat="49.10337" lon="5.89053">
        <ele>234</ele>
        <time>2019-05-21T14:22:39Z</time>
      </trkpt>
      <trkpt lat="49.10345" lon="5.8891">
        <ele>233</ele>
        <time>2019-05-21T14:22:54Z</time>
      </trkpt>
      <trkpt lat="49.10346" lon="5.88885">
        <ele>234</ele>
        <time>2019-05-21T14:22:57Z</time>
      </trkpt>
      <trkpt lat="49.10341" lon="5.88861">
        <ele>234</ele>
        <time>2019-05-21T14:23:00Z</time>
      </trkpt>
      <trkpt lat="49.10296" lon="5.88823">
        <ele>232</ele>
        <time>2019-05-21T14:23:08Z</time>
      </trkpt>
      <trkpt lat="49.10274" lon="5.88835">
        <ele>231</ele>
        <time>2019-05-21T14:23:11Z</time>
      </trkpt>
      <trkpt lat="49.10242" lon="5.88861">
        <ele>232</ele>
        <time>2019-05-21T14:23:16Z</time>
      </trkpt>
      <trkpt lat="49.10181" lon="5.8889">
        <ele>233</ele>
        <time>2019-05-21T14:23:28Z</time>
      </trkpt>
      <trkpt lat="49.10108" lon="5.88921">
        <ele>235</ele>
        <time>2019-05-21T14:23:44Z</time>
      </trkpt>
      <trkpt lat="49.10063" lon="5.88954">
        <ele>236</ele>
        <time>2019-05-21T14:23:54Z</time>
      </trkpt>
      <trkpt lat="49.10008" lon="5.89013">
        <ele>238</ele>
        <time>2019-05-21T14:24:07Z</time>
      </trkpt>
      <trkpt lat="49.09984" lon="5.89035">
        <ele>238</ele>
        <time>2019-05-21T14:24:13Z</time>
      </trkpt>
      <trkpt lat="49.09976" lon="5.89041">
        <ele>238</ele>
        <time>2019-05-21T14:24:15Z</time>
      </trkpt>
      <trkpt lat="49.09931" lon="5.89063">
        <ele>238</ele>
        <time>2019-05-21T14:24:26Z</time>
      </trkpt>
      <trkpt lat="49.09921" lon="5.89107">
        <ele>238</ele>
        <time>2019-05-21T14:24:36Z</time>
      </trkpt>
      <trkpt lat="49.09928" lon="5.891">
        <ele>238</ele>
        <time>2019-05-21T14:24:42Z</time>
      </trkpt>
      <trkpt lat="49.09933" lon="5.89045">
        <ele>238</ele>
        <time>2019-05-21T14:24:50Z</time>
      </trkpt>
      <trkpt lat="49.09909" lon="5.88921">
        <ele>236</ele>
        <time>2019-05-21T14:25:04Z</time>
      </trkpt>
      <trkpt lat="49.09878" lon="5.88788">
        <ele>236</ele>
        <time>2019-05-21T14:25:20Z</time>
      </trkpt>
      <trkpt lat="49.09876" lon="5.88782">
        <ele>236</ele>
        <time>2019-05-21T14:25:21Z</time>
      </trkpt>
      <trkpt lat="49.09872" lon="5.8877">
        <ele>236</ele>
        <time>2019-05-21T14:25:23Z</time>
      </trkpt>
      <trkpt lat="49.09843" lon="5.88772">
        <ele>237</ele>
        <time>2019-05-21T14:25:30Z</time>
      </trkpt>
      <trkpt lat="49.09757" lon="5.88827">
        <ele>237</ele>
        <time>2019-05-21T14:25:47Z</time>
      </trkpt>
      <trkpt lat="49.09719" lon="5.8885">
        <ele>238</ele>
        <time>2019-05-21T14:25:54Z</time>
      </trkpt>
      <trkpt lat="49.09626" lon="5.88919">
        <ele>239</ele>
        <time>2019-05-21T14:26:10Z</time>
      </trkpt>
      <trkpt lat="49.0953" lon="5.89004">
        <ele>238</ele>
        <time>2019-05-21T14:26:26Z</time>
      </trkpt>
      <trkpt lat="49.0943" lon="5.89097">
        <ele>236</ele>
        <time>2019-05-21T14:26:42Z</time>
      </trkpt>
      <trkpt lat="49.09301" lon="5.89218">
        <ele>234</ele>
        <time>2019-05-21T14:27:02Z</time>
      </trkpt>
      <trkpt lat="49.09268" lon="5.89241">
        <ele>234</ele>
        <time>2019-05-21T14:27:07Z</time>
      </trkpt>
      <trkpt lat="49.09248" lon="5.89248">
        <ele>234</ele>
        <time>2019-05-21T14:27:10Z</time>
      </trkpt>
      <trkpt lat="49.09227" lon="5.89274">
        <ele>234</ele>
        <time>2019-05-21T14:27:14Z</time>
      </trkpt>
      <trkpt lat="49.09174" lon="5.89335">
        <ele>234</ele>
        <time>2019-05-21T14:27:25Z</time>
      </trkpt>
      <trkpt lat="49.09095" lon="5.8941">
        <ele>237</ele>
        <time>2019-05-21T14:27:42Z</time>
      </trkpt>
      <trkpt lat="49.09022" lon="5.89477">
        <ele>239</ele>
        <time>2019-05-21T14:27:58Z</time>
      </trkpt>
      <trkpt lat="49.0893" lon="5.89563">
        <ele>240</ele>
        <time>2019-05-21T14:28:18Z</time>
      </trkpt>
      <trkpt lat="49.08852" lon="5.89636">
        <ele>241</ele>
        <time>2019-05-21T14:28:35Z</time>
      </trkpt>
      <trkpt lat="49.08769" lon="5.89714">
        <ele>240</ele>
        <time>2019-05-21T14:28:53Z</time>
      </trkpt>
      <trkpt lat="49.08692" lon="5.89785">
        <ele>243</ele>
        <time>2019-05-21T14:29:10Z</time>
      </trkpt>
      <trkpt lat="49.08601" lon="5.89871">
        <ele>244</ele>
        <time>2019-05-21T14:29:31Z</time>
      </trkpt>
      <trkpt lat="49.08543" lon="5.89925">
        <ele>245</ele>
        <time>2019-05-21T14:29:44Z</time>
      </trkpt>
      <trkpt lat="49.085" lon="5.89964">
        <ele>248</ele>
        <time>2019-05-21T14:29:55Z</time>
      </trkpt>
      <trkpt lat="49.08415" lon="5.90042">
        <ele>253</ele>
        <time>2019-05-21T14:30:19Z</time>
      </trkpt>
      <trkpt lat="49.08353" lon="5.90099">
        <ele>255</ele>
        <time>2019-05-21T14:30:38Z</time>
      </trkpt>
      <trkpt lat="49.08306" lon="5.90145">
        <ele>257</ele>
        <time>2019-05-21T14:30:53Z</time>
      </trkpt>
      <trkpt lat="49.08245" lon="5.902">
        <ele>260</ele>
        <time>2019-05-21T14:31:12Z</time>
      </trkpt>
      <trkpt lat="49.08177" lon="5.90265">
        <ele>262</ele>
        <time>2019-05-21T14:31:34Z</time>
      </trkpt>
      <trkpt lat="49.08113" lon="5.90324">
        <ele>263</ele>
        <time>2019-05-21T14:31:53Z</time>
      </trkpt>
      <trkpt lat="49.08036" lon="5.90395">
        <ele>263</ele>
        <time>2019-05-21T14:32:10Z</time>
      </trkpt>
      <trkpt lat="49.07939" lon="5.90485">
        <ele>266</ele>
        <time>2019-05-21T14:32:30Z</time>
      </trkpt>
      <trkpt lat="49.07866" lon="5.90554">
        <ele>270</ele>
        <time>2019-05-21T14:32:48Z</time>
      </trkpt>
      <trkpt lat="49.07792" lon="5.90621">
        <ele>271</ele>
        <time>2019-05-21T14:33:06Z</time>
      </trkpt>
      <trkpt lat="49.07714" lon="5.90695">
        <ele>271</ele>
        <time>2019-05-21T14:33:26Z</time>
      </trkpt>
      <trkpt lat="49.07704" lon="5.90703">
        <ele>271</ele>
        <time>2019-05-21T14:33:28Z</time>
      </trkpt>
      <trkpt lat="49.07659" lon="5.90746">
        <ele>270</ele>
        <time>2019-05-21T14:33:37Z</time>
      </trkpt>
      <trkpt lat="49.07572" lon="5.90826">
        <ele>269</ele>
        <time>2019-05-21T14:33:54Z</time>
      </trkpt>
      <trkpt lat="49.07493" lon="5.909">
        <ele>273</ele>
        <time>2019-05-21T14:34:12Z</time>
      </trkpt>
      <trkpt lat="49.07409" lon="5.90976">
        <ele>276</ele>
        <time>2019-05-21T14:34:32Z</time>
      </trkpt>
      <trkpt lat="49.07324" lon="5.91056">
        <ele>277</ele>
        <time>2019-05-21T14:34:52Z</time>
      </trkpt>
      <trkpt lat="49.07256" lon="5.91121">
        <ele>277</ele>
        <time>2019-05-21T14:35:07Z</time>
      </trkpt>
      <trkpt lat="49.07161" lon="5.91209">
        <ele>278</ele>
        <time>2019-05-21T14:35:25Z</time>
      </trkpt>
      <trkpt lat="49.07068" lon="5.91295">
        <ele>278</ele>
        <time>2019-05-21T14:35:42Z</time>
      </trkpt>
      <trkpt lat="49.06979" lon="5.91378">
        <ele>276</ele>
        <time>2019-05-21T14:35:57Z</time>
      </trkpt>
      <trkpt lat="49.06876" lon="5.91473">
        <ele>275</ele>
        <time>2019-05-21T14:36:12Z</time>
      </trkpt>
      <trkpt lat="49.0678" lon="5.91561">
        <ele>277</ele>
        <time>2019-05-21T14:36:28Z</time>
      </trkpt>
      <trkpt lat="49.06658" lon="5.91676">
        <ele>279</ele>
        <time>2019-05-21T14:36:48Z</time>
      </trkpt>
      <trkpt lat="49.06567" lon="5.91759">
        <ele>280</ele>
        <time>2019-05-21T14:37:03Z</time>
      </trkpt>
      <trkpt lat="49.06486" lon="5.91835">
        <ele>280</ele>
        <time>2019-05-21T14:37:18Z</time>
      </trkpt>
      <trkpt lat="49.06368" lon="5.91945">
        <ele>278</ele>
        <time>2019-05-21T14:37:36Z</time>
      </trkpt>
      <trkpt lat="49.06266" lon="5.92039">
        <ele>279</ele>
        <time>2019-05-21T14:37:53Z</time>
      </trkpt>
      <trkpt lat="49.06173" lon="5.92126">
        <ele>282</ele>
        <time>2019-05-21T14:38:11Z</time>
      </trkpt>
      <trkpt lat="49.06084" lon="5.92209">
        <ele>282</ele>
        <time>2019-05-21T14:38:27Z</time>
      </trkpt>
      <trkpt lat="49.05966" lon="5.92319">
        <ele>280</ele>
        <time>2019-05-21T14:38:47Z</time>
      </trkpt>
      <trkpt lat="49.05858" lon="5.9242">
        <ele>281</ele>
        <time>2019-05-21T14:39:04Z</time>
      </trkpt>
      <trkpt lat="49.0576" lon="5.92511">
        <ele>282</ele>
        <time>2019-05-21T14:39:21Z</time>
      </trkpt>
      <trkpt lat="49.05704" lon="5.92564">
        <ele>283</ele>
        <time>2019-05-21T14:39:32Z</time>
      </trkpt>
      <trkpt lat="49.05651" lon="5.92616">
        <ele>285</ele>
        <time>2019-05-21T14:39:45Z</time>
      </trkpt>
      <trkpt lat="49.05587" lon="5.92672">
        <ele>286</ele>
        <time>2019-05-21T14:40:00Z</time>
      </trkpt>
      <trkpt lat="49.05518" lon="5.92736">
        <ele>288</ele>
        <time>2019-05-21T14:40:18Z</time>
      </trkpt>
      <trkpt lat="49.05504" lon="5.9275">
        <ele>288</ele>
        <time>2019-05-21T14:40:22Z</time>
      </trkpt>
      <trkpt lat="49.05433" lon="5.92815">
        <ele>287</ele>
        <time>2019-05-21T14:40:36Z</time>
      </trkpt>
      <trkpt lat="49.05345" lon="5.92897">
        <ele>287</ele>
        <time>2019-05-21T14:40:51Z</time>
      </trkpt>
      <trkpt lat="49.05285" lon="5.92953">
        <ele>289</ele>
        <time>2019-05-21T14:41:05Z</time>
      </trkpt>
      <trkpt lat="49.05207" lon="5.93038">
        <ele>292</ele>
        <time>2019-05-21T14:41:23Z</time>
      </trkpt>
      <trkpt lat="49.05158" lon="5.93135">
        <ele>295</ele>
        <time>2019-05-21T14:41:39Z</time>
      </trkpt>
      <trkpt lat="49.05138" lon="5.9319">
        <ele>296</ele>
        <time>2019-05-21T14:41:48Z</time>
      </trkpt>
      <trkpt lat="49.05126" lon="5.93218">
        <ele>297</ele>
        <time>2019-05-21T14:41:53Z</time>
      </trkpt>
      <trkpt lat="49.05078" lon="5.93283">
        <ele>302</ele>
        <time>2019-05-21T14:42:09Z</time>
      </trkpt>
      <trkpt lat="49.05065" lon="5.9325">
        <ele>302</ele>
        <time>2019-05-21T14:42:20Z</time>
      </trkpt>
      <trkpt lat="49.05056" lon="5.93265">
        <ele>302</ele>
        <time>2019-05-21T14:42:27Z</time>
      </trkpt>
      <trkpt lat="49.05055" lon="5.93302">
        <ele>302</ele>
        <time>2019-05-21T14:42:35Z</time>
      </trkpt>
      <trkpt lat="49.05016" lon="5.93329">
        <ele>303</ele>
        <time>2019-05-21T14:42:47Z</time>
      </trkpt>
      <trkpt lat="49.04956" lon="5.93341">
        <ele>305</ele>
        <time>2019-05-21T14:43:02Z</time>
      </trkpt>
      <trkpt lat="49.04886" lon="5.9337">
        <ele>305</ele>
        <time>2019-05-21T14:43:19Z</time>
      </trkpt>
      <trkpt lat="49.04869" lon="5.93387">
        <ele>305</ele>
        <time>2019-05-21T14:43:24Z</time>
      </trkpt>
      <trkpt lat="49.04858" lon="5.93398">
        <ele>305</ele>
        <time>2019-05-21T14:43:27Z</time>
      </trkpt>
      <trkpt lat="49.04803" lon="5.93488">
        <ele>304</ele>
        <time>2019-05-21T14:43:40Z</time>
      </trkpt>
      <trkpt lat="49.04729" lon="5.93628">
        <ele>291</ele>
        <time>2019-05-21T14:43:51Z</time>
      </trkpt>
      <trkpt lat="49.04607" lon="5.93856">
        <ele>282</ele>
        <time>2019-05-21T14:44:08Z</time>
      </trkpt>
      <trkpt lat="49.04521" lon="5.94026">
        <ele>279</ele>
        <time>2019-05-21T14:44:21Z</time>
      </trkpt>
      <trkpt lat="49.04474" lon="5.94205">
        <ele>271</ele>
        <time>2019-05-21T14:44:34Z</time>
      </trkpt>
      <trkpt lat="49.04428" lon="5.94454">
        <ele>261</ele>
        <time>2019-05-21T14:44:48Z</time>
      </trkpt>
      <trkpt lat="49.04372" lon="5.94759">
        <ele>248</ele>
        <time>2019-05-21T14:45:04Z</time>
      </trkpt>
      <trkpt lat="49.04349" lon="5.94883">
        <ele>249</ele>
        <time>2019-05-21T14:45:13Z</time>
      </trkpt>
      <trkpt lat="49.04334" lon="5.94965">
        <ele>252</ele>
        <time>2019-05-21T14:45:24Z</time>
      </trkpt>
      <trkpt lat="49.04316" lon="5.95057">
        <ele>261</ele>
        <time>2019-05-21T14:45:41Z</time>
      </trkpt>
      <trkpt lat="49.0431" lon="5.95119">
        <ele>266</ele>
        <time>2019-05-21T14:45:57Z</time>
      </trkpt>
      <trkpt lat="49.04316" lon="5.95181">
        <ele>270</ele>
        <time>2019-05-21T14:46:15Z</time>
      </trkpt>
      <trkpt lat="49.04326" lon="5.9524">
        <ele>274</ele>
        <time>2019-05-21T14:46:33Z</time>
      </trkpt>
      <trkpt lat="49.04335" lon="5.95303">
        <ele>276</ele>
        <time>2019-05-21T14:46:52Z</time>
      </trkpt>
      <trkpt lat="49.04344" lon="5.95355">
        <ele>281</ele>
        <time>2019-05-21T14:47:08Z</time>
      </trkpt>
      <trkpt lat="49.04348" lon="5.95377">
        <ele>281</ele>
        <time>2019-05-21T14:47:14Z</time>
      </trkpt>
      <trkpt lat="49.04357" lon="5.9545">
        <ele>285</ele>
        <time>2019-05-21T14:47:31Z</time>
      </trkpt>
      <trkpt lat="49.04361" lon="5.95497">
        <ele>286</ele>
        <time>2019-05-21T14:47:42Z</time>
      </trkpt>
      <trkpt lat="49.04371" lon="5.95548">
        <ele>291</ele>
        <time>2019-05-21T14:47:55Z</time>
      </trkpt>
      <trkpt lat="49.04397" lon="5.95602">
        <ele>293</ele>
        <time>2019-05-21T14:48:10Z</time>
      </trkpt>
      <trkpt lat="49.04411" lon="5.95642">
        <ele>294</ele>
        <time>2019-05-21T14:48:22Z</time>
      </trkpt>
      <trkpt lat="49.04436" lon="5.95701">
        <ele>291</ele>
        <time>2019-05-21T14:48:37Z</time>
      </trkpt>
      <trkpt lat="49.04459" lon="5.95758">
        <ele>296</ele>
        <time>2019-05-21T14:48:53Z</time>
      </trkpt>
      <trkpt lat="49.04471" lon="5.9581">
        <ele>298</ele>
        <time>2019-05-21T14:49:06Z</time>
      </trkpt>
      <trkpt lat="49.0448" lon="5.95867">
        <ele>304</ele>
        <time>2019-05-21T14:49:20Z</time>
      </trkpt>
      <trkpt lat="49.04489" lon="5.95929">
        <ele>307</ele>
        <time>2019-05-21T14:49:35Z</time>
      </trkpt>
      <trkpt lat="49.04495" lon="5.95983">
        <ele>308</ele>
        <time>2019-05-21T14:49:48Z</time>
      </trkpt>
      <trkpt lat="49.04502" lon="5.96049">
        <ele>306</ele>
        <time>2019-05-21T14:50:04Z</time>
      </trkpt>
      <trkpt lat="49.04503" lon="5.96108">
        <ele>310</ele>
        <time>2019-05-21T14:50:20Z</time>
      </trkpt>
      <trkpt lat="49.04481" lon="5.96139">
        <ele>316</ele>
        <time>2019-05-21T14:50:32Z</time>
      </trkpt>
      <trkpt lat="49.04447" lon="5.96144">
        <ele>317</ele>
        <time>2019-05-21T14:50:45Z</time>
      </trkpt>
      <trkpt lat="49.04404" lon="5.96118">
        <ele>323</ele>
        <time>2019-05-21T14:51:01Z</time>
      </trkpt>
      <trkpt lat="49.04368" lon="5.96091">
        <ele>324</ele>
        <time>2019-05-21T14:51:15Z</time>
      </trkpt>
      <trkpt lat="49.04325" lon="5.96056">
        <ele>329</ele>
        <time>2019-05-21T14:51:31Z</time>
      </trkpt>
      <trkpt lat="49.04287" lon="5.9603">
        <ele>331</ele>
        <time>2019-05-21T14:51:45Z</time>
      </trkpt>
      <trkpt lat="49.04252" lon="5.96001">
        <ele>334</ele>
        <time>2019-05-21T14:51:59Z</time>
      </trkpt>
      <trkpt lat="49.04215" lon="5.95974">
        <ele>334</ele>
        <time>2019-05-21T14:52:13Z</time>
      </trkpt>
      <trkpt lat="49.04173" lon="5.95942">
        <ele>335</ele>
        <time>2019-05-21T14:52:31Z</time>
      </trkpt>
      <trkpt lat="49.04148" lon="5.95923">
        <ele>338</ele>
        <time>2019-05-21T14:52:42Z</time>
      </trkpt>
      <trkpt lat="49.04111" lon="5.95911">
        <ele>338</ele>
        <time>2019-05-21T14:52:56Z</time>
      </trkpt>
      <trkpt lat="49.04079" lon="5.95913">
        <ele>342</ele>
        <time>2019-05-21T14:53:08Z</time>
      </trkpt>
      <trkpt lat="49.04049" lon="5.95917">
        <ele>343</ele>
        <time>2019-05-21T14:53:20Z</time>
      </trkpt>
      <trkpt lat="49.04019" lon="5.9592">
        <ele>346</ele>
        <time>2019-05-21T14:53:32Z</time>
      </trkpt>
      <trkpt lat="49.03983" lon="5.95929">
        <ele>347</ele>
        <time>2019-05-21T14:53:44Z</time>
      </trkpt>
      <trkpt lat="49.03947" lon="5.95935">
        <ele>347</ele>
        <time>2019-05-21T14:53:57Z</time>
      </trkpt>
      <trkpt lat="49.03903" lon="5.95956">
        <ele>345</ele>
        <time>2019-05-21T14:54:13Z</time>
      </trkpt>
      <trkpt lat="49.03877" lon="5.9598">
        <ele>344</ele>
        <time>2019-05-21T14:54:26Z</time>
      </trkpt>
      <trkpt lat="49.03857" lon="5.96015">
        <ele>343</ele>
        <time>2019-05-21T14:54:39Z</time>
      </trkpt>
      <trkpt lat="49.03855" lon="5.9603">
        <ele>344</ele>
        <time>2019-05-21T14:54:49Z</time>
      </trkpt>
      <trkpt lat="49.03855" lon="5.9603">
        <ele>344</ele>
        <time>2019-05-21T14:55:10Z</time>
      </trkpt>
      <trkpt lat="49.03855" lon="5.9603">
        <ele>344</ele>
        <time>2019-05-21T14:55:15Z</time>
      </trkpt>
      <trkpt lat="49.03853" lon="5.96032">
        <ele>344</ele>
        <time>2019-05-21T14:55:17Z</time>
      </trkpt>
      <trkpt lat="49.03841" lon="5.9604">
        <ele>344</ele>
        <time>2019-05-21T14:55:23Z</time>
      </trkpt>
      <trkpt lat="49.03815" lon="5.96093">
        <ele>343</ele>
        <time>2019-05-21T14:55:38Z</time>
      </trkpt>
      <trkpt lat="49.03787" lon="5.9615">
        <ele>342</ele>
        <time>2019-05-21T14:55:50Z</time>
      </trkpt>
      <trkpt lat="49.03736" lon="5.96254">
        <ele>337</ele>
        <time>2019-05-21T14:56:02Z</time>
      </trkpt>
      <trkpt lat="49.03689" lon="5.96351">
        <ele>331</ele>
        <time>2019-05-21T14:56:10Z</time>
      </trkpt>
      <trkpt lat="49.03676" lon="5.96464">
        <ele>329</ele>
        <time>2019-05-21T14:56:17Z</time>
      </trkpt>
      <trkpt lat="49.0368" lon="5.96499">
        <ele>328</ele>
        <time>2019-05-21T14:56:19Z</time>
      </trkpt>
      <trkpt lat="49.03663" lon="5.96567">
        <ele>328</ele>
        <time>2019-05-21T14:56:24Z</time>
      </trkpt>
      <trkpt lat="49.03633" lon="5.96542">
        <ele>329</ele>
        <time>2019-05-21T14:56:28Z</time>
      </trkpt>
      <trkpt lat="49.03623" lon="5.96505">
        <ele>329</ele>
        <time>2019-05-21T14:56:31Z</time>
      </trkpt>
      <trkpt lat="49.03598" lon="5.9643">
        <ele>327</ele>
        <time>2019-05-21T14:56:37Z</time>
      </trkpt>
      <trkpt lat="49.03512" lon="5.96296">
        <ele>324</ele>
        <time>2019-05-21T14:56:48Z</time>
      </trkpt>
      <trkpt lat="49.03501" lon="5.96286">
        <ele>323</ele>
        <time>2019-05-21T14:56:49Z</time>
      </trkpt>
      <trkpt lat="49.0342" lon="5.96265">
        <ele>320</ele>
        <time>2019-05-21T14:56:56Z</time>
      </trkpt>
      <trkpt lat="49.03382" lon="5.96277">
        <ele>321</ele>
        <time>2019-05-21T14:56:59Z</time>
      </trkpt>
      <trkpt lat="49.03267" lon="5.96244">
        <ele>311</ele>
        <time>2019-05-21T14:57:08Z</time>
      </trkpt>
      <trkpt lat="49.03241" lon="5.96234">
        <ele>306</ele>
        <time>2019-05-21T14:57:10Z</time>
      </trkpt>
      <trkpt lat="49.0318" lon="5.96256">
        <ele>304</ele>
        <time>2019-05-21T14:57:15Z</time>
      </trkpt>
      <trkpt lat="49.03125" lon="5.96316">
        <ele>299</ele>
        <time>2019-05-21T14:57:20Z</time>
      </trkpt>
      <trkpt lat="49.03074" lon="5.96339">
        <ele>291</ele>
        <time>2019-05-21T14:57:24Z</time>
      </trkpt>
      <trkpt lat="49.0294" lon="5.9632">
        <ele>291</ele>
        <time>2019-05-21T14:57:34Z</time>
      </trkpt>
      <trkpt lat="49.02819" lon="5.96303">
        <ele>284</ele>
        <time>2019-05-21T14:57:44Z</time>
      </trkpt>
      <trkpt lat="49.0274" lon="5.96309">
        <ele>279</ele>
        <time>2019-05-21T14:57:51Z</time>
      </trkpt>
      <trkpt lat="49.02616" lon="5.96381">
        <ele>268</ele>
        <time>2019-05-21T14:58:03Z</time>
      </trkpt>
      <trkpt lat="49.02503" lon="5.96451">
        <ele>258</ele>
        <time>2019-05-21T14:58:14Z</time>
      </trkpt>
      <trkpt lat="49.02356" lon="5.96565">
        <ele>247</ele>
        <time>2019-05-21T14:58:29Z</time>
      </trkpt>
      <trkpt lat="49.02232" lon="5.96645">
        <ele>236</ele>
        <time>2019-05-21T14:58:41Z</time>
      </trkpt>
      <trkpt lat="49.02082" lon="5.96707">
        <ele>222</ele>
        <time>2019-05-21T14:58:54Z</time>
      </trkpt>
      <trkpt lat="49.01925" lon="5.96767">
        <ele>208</ele>
        <time>2019-05-21T14:59:08Z</time>
      </trkpt>
      <trkpt lat="49.01762" lon="5.96849">
        <ele>197</ele>
        <time>2019-05-21T14:59:24Z</time>
      </trkpt>
      <trkpt lat="49.01726" lon="5.9687">
        <ele>195</ele>
        <time>2019-05-21T14:59:31Z</time>
      </trkpt>
      <trkpt lat="49.01685" lon="5.96902">
        <ele>194</ele>
        <time>2019-05-21T14:59:41Z</time>
      </trkpt>
      <trkpt lat="49.01645" lon="5.96925">
        <ele>192</ele>
        <time>2019-05-21T14:59:48Z</time>
      </trkpt>
      <trkpt lat="49.0162" lon="5.96938">
        <ele>191</ele>
        <time>2019-05-21T14:59:52Z</time>
      </trkpt>
      <trkpt lat="49.01566" lon="5.96914">
        <ele>188</ele>
        <time>2019-05-21T15:00:01Z</time>
      </trkpt>
      <trkpt lat="49.01561" lon="5.96911">
        <ele>187</ele>
        <time>2019-05-21T15:00:03Z</time>
      </trkpt>
      <trkpt lat="49.01538" lon="5.96921">
        <ele>186</ele>
        <time>2019-05-21T15:00:12Z</time>
      </trkpt>
      <trkpt lat="49.01534" lon="5.96924">
        <ele>186</ele>
        <time>2019-05-21T15:00:13Z</time>
      </trkpt>
      <trkpt lat="49.01519" lon="5.96944">
        <ele>186</ele>
        <time>2019-05-21T15:00:17Z</time>
      </trkpt>
      <trkpt lat="49.01492" lon="5.9706">
        <ele>185</ele>
        <time>2019-05-21T15:00:30Z</time>
      </trkpt>
      <trkpt lat="49.01489" lon="5.972">
        <ele>186</ele>
        <time>2019-05-21T15:00:43Z</time>
      </trkpt>
      <trkpt lat="49.01514" lon="5.97329">
        <ele>185</ele>
        <time>2019-05-21T15:00:55Z</time>
      </trkpt>
      <trkpt lat="49.01538" lon="5.97455">
        <ele>184</ele>
        <time>2019-05-21T15:01:07Z</time>
      </trkpt>
      <trkpt lat="49.01558" lon="5.97639">
        <ele>186</ele>
        <time>2019-05-21T15:01:25Z</time>
      </trkpt>
      <trkpt lat="49.01585" lon="5.97803">
        <ele>190</ele>
        <time>2019-05-21T15:01:42Z</time>
      </trkpt>
      <trkpt lat="49.01606" lon="5.97957">
        <ele>188</ele>
        <time>2019-05-21T15:01:56Z</time>
      </trkpt>
      <trkpt lat="49.01606" lon="5.9813">
        <ele>189</ele>
        <time>2019-05-21T15:02:12Z</time>
      </trkpt>
      <trkpt lat="49.01598" lon="5.98214">
        <ele>188</ele>
        <time>2019-05-21T15:02:20Z</time>
      </trkpt>
      <trkpt lat="49.01589" lon="5.98365">
        <ele>189</ele>
        <time>2019-05-21T15:02:35Z</time>
      </trkpt>
      <trkpt lat="49.01571" lon="5.98521">
        <ele>188</ele>
        <time>2019-05-21T15:02:51Z</time>
      </trkpt>
      <trkpt lat="49.01552" lon="5.98685">
        <ele>187</ele>
        <time>2019-05-21T15:03:09Z</time>
      </trkpt>
      <trkpt lat="49.01535" lon="5.98818">
        <ele>188</ele>
        <time>2019-05-21T15:03:25Z</time>
      </trkpt>
      <trkpt lat="49.01517" lon="5.9892">
        <ele>190</ele>
        <time>2019-05-21T15:03:38Z</time>
      </trkpt>
      <trkpt lat="49.0147" lon="5.99011">
        <ele>188</ele>
        <time>2019-05-21T15:03:50Z</time>
      </trkpt>
      <trkpt lat="49.01466" lon="5.99017">
        <ele>188</ele>
        <time>2019-05-21T15:03:51Z</time>
      </trkpt>
      <trkpt lat="49.01447" lon="5.99035">
        <ele>187</ele>
        <time>2019-05-21T15:03:55Z</time>
      </trkpt>
      <trkpt lat="49.01423" lon="5.99048">
        <ele>187</ele>
        <time>2019-05-21T15:03:59Z</time>
      </trkpt>
      <trkpt lat="49.01394" lon="5.9911">
        <ele>184</ele>
        <time>2019-05-21T15:04:06Z</time>
      </trkpt>
      <trkpt lat="49.01391" lon="5.99156">
        <ele>184</ele>
        <time>2019-05-21T15:04:10Z</time>
      </trkpt>
      <trkpt lat="49.01403" lon="5.9928">
        <ele>184</ele>
        <time>2019-05-21T15:04:23Z</time>
      </trkpt>
      <trkpt lat="49.01431" lon="5.99434">
        <ele>186</ele>
        <time>2019-05-21T15:04:40Z</time>
      </trkpt>
      <trkpt lat="49.01468" lon="5.9963">
        <ele>185</ele>
        <time>2019-05-21T15:05:02Z</time>
      </trkpt>
      <trkpt lat="49.01508" lon="5.9978">
        <ele>184</ele>
        <time>2019-05-21T15:05:17Z</time>
      </trkpt>
      <trkpt lat="49.01546" lon="5.99957">
        <ele>184</ele>
        <time>2019-05-21T15:05:35Z</time>
      </trkpt>
      <trkpt lat="49.01585" lon="6.00105">
        <ele>188</ele>
        <time>2019-05-21T15:05:52Z</time>
      </trkpt>
      <trkpt lat="49.01593" lon="6.00144">
        <ele>189</ele>
        <time>2019-05-21T15:05:57Z</time>
      </trkpt>
      <trkpt lat="49.01601" lon="6.00181">
        <ele>188</ele>
        <time>2019-05-21T15:06:02Z</time>
      </trkpt>
      <trkpt lat="49.01603" lon="6.00195">
        <ele>189</ele>
        <time>2019-05-21T15:06:04Z</time>
      </trkpt>
      <trkpt lat="49.01622" lon="6.00311">
        <ele>189</ele>
        <time>2019-05-21T15:06:21Z</time>
      </trkpt>
      <trkpt lat="49.01645" lon="6.00438">
        <ele>188</ele>
        <time>2019-05-21T15:06:36Z</time>
      </trkpt>
      <trkpt lat="49.01666" lon="6.00598">
        <ele>183</ele>
        <time>2019-05-21T15:06:51Z</time>
      </trkpt>
      <trkpt lat="49.01704" lon="6.00756">
        <ele>184</ele>
        <time>2019-05-21T15:07:07Z</time>
      </trkpt>
      <trkpt lat="49.01733" lon="6.00913">
        <ele>184</ele>
        <time>2019-05-21T15:07:25Z</time>
      </trkpt>
      <trkpt lat="49.0174" lon="6.00994">
        <ele>186</ele>
        <time>2019-05-21T15:07:34Z</time>
      </trkpt>
      <trkpt lat="49.01751" lon="6.01182">
        <ele>191</ele>
        <time>2019-05-21T15:07:54Z</time>
      </trkpt>
      <trkpt lat="49.01737" lon="6.01318">
        <ele>186</ele>
        <time>2019-05-21T15:08:09Z</time>
      </trkpt>
      <trkpt lat="49.01714" lon="6.01477">
        <ele>190</ele>
        <time>2019-05-21T15:08:25Z</time>
      </trkpt>
      <trkpt lat="49.01664" lon="6.01617">
        <ele>184</ele>
        <time>2019-05-21T15:08:39Z</time>
      </trkpt>
      <trkpt lat="49.01599" lon="6.01749">
        <ele>182</ele>
        <time>2019-05-21T15:08:55Z</time>
      </trkpt>
      <trkpt lat="49.01572" lon="6.01804">
        <ele>183</ele>
        <time>2019-05-21T15:09:02Z</time>
      </trkpt>
      <trkpt lat="49.01555" lon="6.01921">
        <ele>184</ele>
        <time>2019-05-21T15:09:14Z</time>
      </trkpt>
      <trkpt lat="49.01505" lon="6.02052">
        <ele>184</ele>
        <time>2019-05-21T15:09:29Z</time>
      </trkpt>
      <trkpt lat="49.01429" lon="6.02186">
        <ele>184</ele>
        <time>2019-05-21T15:09:47Z</time>
      </trkpt>
      <trkpt lat="49.01379" lon="6.02335">
        <ele>187</ele>
        <time>2019-05-21T15:10:06Z</time>
      </trkpt>
      <trkpt lat="49.01347" lon="6.02425">
        <ele>192</ele>
        <time>2019-05-21T15:10:21Z</time>
      </trkpt>
      <trkpt lat="49.01308" lon="6.02493">
        <ele>190</ele>
        <time>2019-05-21T15:10:36Z</time>
      </trkpt>
      <trkpt lat="49.01277" lon="6.02578">
        <ele>195</ele>
        <time>2019-05-21T15:10:53Z</time>
      </trkpt>
      <trkpt lat="49.01244" lon="6.02682">
        <ele>196</ele>
        <time>2019-05-21T15:11:13Z</time>
      </trkpt>
      <trkpt lat="49.01208" lon="6.028">
        <ele>200</ele>
        <time>2019-05-21T15:11:32Z</time>
      </trkpt>
      <trkpt lat="49.01202" lon="6.02822">
        <ele>200</ele>
        <time>2019-05-21T15:11:35Z</time>
      </trkpt>
      <trkpt lat="49.01176" lon="6.0289">
        <ele>201</ele>
        <time>2019-05-21T15:11:44Z</time>
      </trkpt>
      <trkpt lat="49.0117" lon="6.02906">
        <ele>199</ele>
        <time>2019-05-21T15:11:52Z</time>
      </trkpt>
      <trkpt lat="49.01167" lon="6.02913">
        <ele>197</ele>
        <time>2019-05-21T15:12:01Z</time>
      </trkpt>
      <trkpt lat="49.01165" lon="6.02918">
        <ele>196</ele>
        <time>2019-05-21T15:12:17Z</time>
      </trkpt>
      <trkpt lat="49.01165" lon="6.02919">
        <ele>195</ele>
        <time>2019-05-21T15:12:44Z</time>
      </trkpt>
      <trkpt lat="49.01165" lon="6.02916">
        <ele>196</ele>
        <time>2019-05-21T15:12:59Z</time>
      </trkpt>
      <trkpt lat="49.01165" lon="6.02913">
        <ele>195</ele>
        <time>2019-05-21T15:13:21Z</time>
      </trkpt>
      <trkpt lat="49.01164" lon="6.02912">
        <ele>195</ele>
        <time>2019-05-21T15:13:33Z</time>
      </trkpt>
      <trkpt lat="49.01163" lon="6.02932">
        <ele>194</ele>
        <time>2019-05-21T15:13:42Z</time>
      </trkpt>
      <trkpt lat="49.01162" lon="6.02936">
        <ele>193</ele>
        <time>2019-05-21T15:13:43Z</time>
      </trkpt>
      <trkpt lat="49.01156" lon="6.02951">
        <ele>192</ele>
        <time>2019-05-21T15:13:46Z</time>
      </trkpt>
      <trkpt lat="49.01121" lon="6.03026">
        <ele>190</ele>
        <time>2019-05-21T15:13:58Z</time>
      </trkpt>
      <trkpt lat="49.01103" lon="6.03126">
        <ele>189</ele>
        <time>2019-05-21T15:14:08Z</time>
      </trkpt>
      <trkpt lat="49.01068" lon="6.03321">
        <ele>178</ele>
        <time>2019-05-21T15:14:21Z</time>
      </trkpt>
      <trkpt lat="49.01038" lon="6.03494">
        <ele>175</ele>
        <time>2019-05-21T15:14:33Z</time>
      </trkpt>
      <trkpt lat="49.01031" lon="6.03517">
        <ele>175</ele>
        <time>2019-05-21T15:14:35Z</time>
      </trkpt>
      <trkpt lat="49.01031" lon="6.0356">
        <ele>175</ele>
        <time>2019-05-21T15:14:39Z</time>
      </trkpt>
      <trkpt lat="49.01032" lon="6.03644">
        <ele>174</ele>
        <time>2019-05-21T15:14:47Z</time>
      </trkpt>
      <trkpt lat="49.01063" lon="6.03776">
        <ele>174</ele>
        <time>2019-05-21T15:15:01Z</time>
      </trkpt>
      <trkpt lat="49.01072" lon="6.03803">
        <ele>174</ele>
        <time>2019-05-21T15:15:05Z</time>
      </trkpt>
      <trkpt lat="49.01079" lon="6.0382">
        <ele>174</ele>
        <time>2019-05-21T15:15:08Z</time>
      </trkpt>
      <trkpt lat="49.01106" lon="6.03864">
        <ele>175</ele>
        <time>2019-05-21T15:15:21Z</time>
      </trkpt>
      <trkpt lat="49.01103" lon="6.03865">
        <ele>175</ele>
        <time>2019-05-21T15:15:36Z</time>
      </trkpt>
      <trkpt lat="49.01103" lon="6.03864">
        <ele>175</ele>
        <time>2019-05-21T15:15:54Z</time>
      </trkpt>
      <trkpt lat="49.01104" lon="6.03864">
        <ele>175</ele>
        <time>2019-05-21T15:16:01Z</time>
      </trkpt>
      <trkpt lat="49.0111" lon="6.0387">
        <ele>175</ele>
        <time>2019-05-21T15:16:12Z</time>
      </trkpt>
      <trkpt lat="49.01113" lon="6.03872">
        <ele>175</ele>
        <time>2019-05-21T15:16:27Z</time>
      </trkpt>
      <trkpt lat="49.01116" lon="6.03877">
        <ele>175</ele>
        <time>2019-05-21T15:16:46Z</time>
      </trkpt>
      <trkpt lat="49.0112" lon="6.03881">
        <ele>175</ele>
        <time>2019-05-21T15:17:03Z</time>
      </trkpt>
      <trkpt lat="49.01153" lon="6.03928">
        <ele>175</ele>
        <time>2019-05-21T15:17:16Z</time>
      </trkpt>
      <trkpt lat="49.0122" lon="6.04014">
        <ele>176</ele>
        <time>2019-05-21T15:17:35Z</time>
      </trkpt>
      <trkpt lat="49.01273" lon="6.04078">
        <ele>179</ele>
        <time>2019-05-21T15:17:49Z</time>
      </trkpt>
      <trkpt lat="49.01312" lon="6.04122">
        <ele>179</ele>
        <time>2019-05-21T15:18:00Z</time>
      </trkpt>
      <trkpt lat="49.01365" lon="6.04206">
        <ele>183</ele>
        <time>2019-05-21T15:18:19Z</time>
      </trkpt>
      <trkpt lat="49.01405" lon="6.0428">
        <ele>182</ele>
        <time>2019-05-21T15:18:37Z</time>
      </trkpt>
      <trkpt lat="49.01445" lon="6.04351">
        <ele>185</ele>
        <time>2019-05-21T15:18:54Z</time>
      </trkpt>
      <trkpt lat="49.0145" lon="6.04359">
        <ele>185</ele>
        <time>2019-05-21T15:18:56Z</time>
      </trkpt>
      <trkpt lat="49.01455" lon="6.04368">
        <ele>185</ele>
        <time>2019-05-21T15:18:58Z</time>
      </trkpt>
      <trkpt lat="49.0147" lon="6.04393">
        <ele>185</ele>
        <time>2019-05-21T15:19:03Z</time>
      </trkpt>
      <trkpt lat="49.01477" lon="6.04402">
        <ele>186</ele>
        <time>2019-05-21T15:19:05Z</time>
      </trkpt>
      <trkpt lat="49.01489" lon="6.04421">
        <ele>183</ele>
        <time>2019-05-21T15:19:09Z</time>
      </trkpt>
      <trkpt lat="49.01558" lon="6.04507">
        <ele>180</ele>
        <time>2019-05-21T15:19:26Z</time>
      </trkpt>
      <trkpt lat="49.01648" lon="6.04575">
        <ele>179</ele>
        <time>2019-05-21T15:19:40Z</time>
      </trkpt>
      <trkpt lat="49.01793" lon="6.04672">
        <ele>174</ele>
        <time>2019-05-21T15:20:00Z</time>
      </trkpt>
      <trkpt lat="49.01904" lon="6.0476">
        <ele>173</ele>
        <time>2019-05-21T15:20:16Z</time>
      </trkpt>
      <trkpt lat="49.0202" lon="6.04853">
        <ele>174</ele>
        <time>2019-05-21T15:20:34Z</time>
      </trkpt>
      <trkpt lat="49.02121" lon="6.04925">
        <ele>174</ele>
        <time>2019-05-21T15:20:50Z</time>
      </trkpt>
      <trkpt lat="49.02224" lon="6.04988">
        <ele>174</ele>
        <time>2019-05-21T15:21:06Z</time>
      </trkpt>
      <trkpt lat="49.02327" lon="6.05024">
        <ele>173</ele>
        <time>2019-05-21T15:21:21Z</time>
      </trkpt>
      <trkpt lat="49.02354" lon="6.05035">
        <ele>173</ele>
        <time>2019-05-21T15:21:25Z</time>
      </trkpt>
      <trkpt lat="49.02425" lon="6.05048">
        <ele>174</ele>
        <time>2019-05-21T15:21:36Z</time>
      </trkpt>
      <trkpt lat="49.02467" lon="6.0506">
        <ele>173</ele>
        <time>2019-05-21T15:21:46Z</time>
      </trkpt>
      <trkpt lat="49.02527" lon="6.05076">
        <ele>173</ele>
        <time>2019-05-21T15:21:59Z</time>
      </trkpt>
      <trkpt lat="49.02606" lon="6.05088">
        <ele>172</ele>
        <time>2019-05-21T15:22:13Z</time>
      </trkpt>
      <trkpt lat="49.0271" lon="6.05103">
        <ele>173</ele>
        <time>2019-05-21T15:22:29Z</time>
      </trkpt>
      <trkpt lat="49.02812" lon="6.0513">
        <ele>175</ele>
        <time>2019-05-21T15:22:44Z</time>
      </trkpt>
      <trkpt lat="49.02916" lon="6.05139">
        <ele>174</ele>
        <time>2019-05-21T15:22:59Z</time>
      </trkpt>
      <trkpt lat="49.0303" lon="6.05117">
        <ele>176</ele>
        <time>2019-05-21T15:23:16Z</time>
      </trkpt>
      <trkpt lat="49.03136" lon="6.05111">
        <ele>175</ele>
        <time>2019-05-21T15:23:32Z</time>
      </trkpt>
      <trkpt lat="49.03242" lon="6.05127">
        <ele>174</ele>
        <time>2019-05-21T15:23:49Z</time>
      </trkpt>
      <trkpt lat="49.03332" lon="6.05158">
        <ele>174</ele>
        <time>2019-05-21T15:24:04Z</time>
      </trkpt>
      <trkpt lat="49.03446" lon="6.05202">
        <ele>175</ele>
        <time>2019-05-21T15:24:22Z</time>
      </trkpt>
      <trkpt lat="49.03558" lon="6.05245">
        <ele>178</ele>
        <time>2019-05-21T15:24:40Z</time>
      </trkpt>
      <trkpt lat="49.03664" lon="6.05296">
        <ele>175</ele>
        <time>2019-05-21T15:24:57Z</time>
      </trkpt>
      <trkpt lat="49.03768" lon="6.05364">
        <ele>177</ele>
        <time>2019-05-21T15:25:14Z</time>
      </trkpt>
      <trkpt lat="49.03864" lon="6.05432">
        <ele>175</ele>
        <time>2019-05-21T15:25:30Z</time>
      </trkpt>
      <trkpt lat="49.03974" lon="6.055">
        <ele>175</ele>
        <time>2019-05-21T15:25:47Z</time>
      </trkpt>
      <trkpt lat="49.04097" lon="6.05577">
        <ele>177</ele>
        <time>2019-05-21T15:26:06Z</time>
      </trkpt>
      <trkpt lat="49.04227" lon="6.05658">
        <ele>175</ele>
        <time>2019-05-21T15:26:26Z</time>
      </trkpt>
      <trkpt lat="49.04299" lon="6.05701">
        <ele>174</ele>
        <time>2019-05-21T15:26:37Z</time>
      </trkpt>
      <trkpt lat="49.04432" lon="6.05776">
        <ele>172</ele>
        <time>2019-05-21T15:26:57Z</time>
      </trkpt>
      <trkpt lat="49.04538" lon="6.05823">
        <ele>173</ele>
        <time>2019-05-21T15:27:13Z</time>
      </trkpt>
      <trkpt lat="49.04644" lon="6.0586">
        <ele>170</ele>
        <time>2019-05-21T15:27:29Z</time>
      </trkpt>
      <trkpt lat="49.04757" lon="6.05895">
        <ele>170</ele>
        <time>2019-05-21T15:27:46Z</time>
      </trkpt>
      <trkpt lat="49.04858" lon="6.05922">
        <ele>170</ele>
        <time>2019-05-21T15:28:03Z</time>
      </trkpt>
      <trkpt lat="49.04963" lon="6.05951">
        <ele>169</ele>
        <time>2019-05-21T15:28:21Z</time>
      </trkpt>
      <trkpt lat="49.05062" lon="6.05977">
        <ele>169</ele>
        <time>2019-05-21T15:28:38Z</time>
      </trkpt>
      <trkpt lat="49.05167" lon="6.06009">
        <ele>170</ele>
        <time>2019-05-21T15:28:56Z</time>
      </trkpt>
      <trkpt lat="49.05202" lon="6.06026">
        <ele>170</ele>
        <time>2019-05-21T15:29:02Z</time>
      </trkpt>
      <trkpt lat="49.05298" lon="6.06048">
        <ele>170</ele>
        <time>2019-05-21T15:29:18Z</time>
      </trkpt>
      <trkpt lat="49.05399" lon="6.06086">
        <ele>170</ele>
        <time>2019-05-21T15:29:35Z</time>
      </trkpt>
      <trkpt lat="49.0552" lon="6.06149">
        <ele>173</ele>
        <time>2019-05-21T15:29:56Z</time>
      </trkpt>
      <trkpt lat="49.05606" lon="6.06175">
        <ele>172</ele>
        <time>2019-05-21T15:30:11Z</time>
      </trkpt>
      <trkpt lat="49.0568" lon="6.06198">
        <ele>172</ele>
        <time>2019-05-21T15:30:24Z</time>
      </trkpt>
      <trkpt lat="49.05715" lon="6.06206">
        <ele>171</ele>
        <time>2019-05-21T15:30:31Z</time>
      </trkpt>
      <trkpt lat="49.05765" lon="6.06233">
        <ele>171</ele>
        <time>2019-05-21T15:30:40Z</time>
      </trkpt>
      <trkpt lat="49.05856" lon="6.06311">
        <ele>170</ele>
        <time>2019-05-21T15:30:58Z</time>
      </trkpt>
      <trkpt lat="49.05938" lon="6.06383">
        <ele>169</ele>
        <time>2019-05-21T15:31:13Z</time>
      </trkpt>
      <trkpt lat="49.06037" lon="6.06474">
        <ele>171</ele>
        <time>2019-05-21T15:31:31Z</time>
      </trkpt>
      <trkpt lat="49.06101" lon="6.06535">
        <ele>172</ele>
        <time>2019-05-21T15:31:43Z</time>
      </trkpt>
      <trkpt lat="49.06203" lon="6.06635">
        <ele>171</ele>
        <time>2019-05-21T15:32:02Z</time>
      </trkpt>
      <trkpt lat="49.06304" lon="6.06722">
        <ele>170</ele>
        <time>2019-05-21T15:32:22Z</time>
      </trkpt>
      <trkpt lat="49.06394" lon="6.06797">
        <ele>170</ele>
        <time>2019-05-21T15:32:40Z</time>
      </trkpt>
      <trkpt lat="49.06494" lon="6.06879">
        <ele>169</ele>
        <time>2019-05-21T15:33:00Z</time>
      </trkpt>
      <trkpt lat="49.0659" lon="6.06956">
        <ele>171</ele>
        <time>2019-05-21T15:33:19Z</time>
      </trkpt>
      <trkpt lat="49.06686" lon="6.07038">
        <ele>173</ele>
        <time>2019-05-21T15:33:39Z</time>
      </trkpt>
      <trkpt lat="49.0678" lon="6.07113">
        <ele>172</ele>
        <time>2019-05-21T15:33:59Z</time>
      </trkpt>
      <trkpt lat="49.06848" lon="6.07164">
        <ele>171</ele>
        <time>2019-05-21T15:34:14Z</time>
      </trkpt>
      <trkpt lat="49.06921" lon="6.07217">
        <ele>171</ele>
        <time>2019-05-21T15:34:29Z</time>
      </trkpt>
      <trkpt lat="49.0701" lon="6.07283">
        <ele>170</ele>
        <time>2019-05-21T15:34:48Z</time>
      </trkpt>
      <trkpt lat="49.07034" lon="6.073">
        <ele>171</ele>
        <time>2019-05-21T15:34:55Z</time>
      </trkpt>
      <trkpt lat="49.07123" lon="6.07346">
        <ele>171</ele>
        <time>2019-05-21T15:35:14Z</time>
      </trkpt>
      <trkpt lat="49.07127" lon="6.07348">
        <ele>171</ele>
        <time>2019-05-21T15:35:15Z</time>
      </trkpt>
      <trkpt lat="49.07183" lon="6.07379">
        <ele>171</ele>
        <time>2019-05-21T15:35:26Z</time>
      </trkpt>
      <trkpt lat="49.07211" lon="6.07388">
        <ele>171</ele>
        <time>2019-05-21T15:35:32Z</time>
      </trkpt>
      <trkpt lat="49.07306" lon="6.07399">
        <ele>172</ele>
        <time>2019-05-21T15:35:50Z</time>
      </trkpt>
      <trkpt lat="49.07375" lon="6.07408">
        <ele>173</ele>
        <time>2019-05-21T15:36:03Z</time>
      </trkpt>
      <trkpt lat="49.07414" lon="6.07421">
        <ele>173</ele>
        <time>2019-05-21T15:36:11Z</time>
      </trkpt>
      <trkpt lat="49.07474" lon="6.07474">
        <ele>173</ele>
        <time>2019-05-21T15:36:26Z</time>
      </trkpt>
      <trkpt lat="49.0751" lon="6.07529">
        <ele>173</ele>
        <time>2019-05-21T15:36:40Z</time>
      </trkpt>
      <trkpt lat="49.07496" lon="6.07548">
        <ele>172</ele>
        <time>2019-05-21T15:36:50Z</time>
      </trkpt>
      <trkpt lat="49.07497" lon="6.07573">
        <ele>172</ele>
        <time>2019-05-21T15:36:59Z</time>
      </trkpt>
      <trkpt lat="49.07529" lon="6.07585">
        <ele>172</ele>
        <time>2019-05-21T15:37:10Z</time>
      </trkpt>
      <trkpt lat="49.07552" lon="6.07611">
        <ele>172</ele>
        <time>2019-05-21T15:37:21Z</time>
      </trkpt>
      <trkpt lat="49.07563" lon="6.07627">
        <ele>172</ele>
        <time>2019-05-21T15:37:26Z</time>
      </trkpt>
      <trkpt lat="49.07613" lon="6.07726">
        <ele>172</ele>
        <time>2019-05-21T15:37:41Z</time>
      </trkpt>
      <trkpt lat="49.07665" lon="6.07838">
        <ele>172</ele>
        <time>2019-05-21T15:37:54Z</time>
      </trkpt>
      <trkpt lat="49.07709" lon="6.07975">
        <ele>172</ele>
        <time>2019-05-21T15:38:09Z</time>
      </trkpt>
      <trkpt lat="49.07763" lon="6.08089">
        <ele>170</ele>
        <time>2019-05-21T15:38:23Z</time>
      </trkpt>
      <trkpt lat="49.07821" lon="6.08174">
        <ele>171</ele>
        <time>2019-05-21T15:38:37Z</time>
      </trkpt>
      <trkpt lat="49.07886" lon="6.08257">
        <ele>170</ele>
        <time>2019-05-21T15:38:52Z</time>
      </trkpt>
      <trkpt lat="49.07935" lon="6.0831">
        <ele>170</ele>
        <time>2019-05-21T15:39:03Z</time>
      </trkpt>
      <trkpt lat="49.08007" lon="6.08382">
        <ele>171</ele>
        <time>2019-05-21T15:39:18Z</time>
      </trkpt>
      <trkpt lat="49.08062" lon="6.08434">
        <ele>170</ele>
        <time>2019-05-21T15:39:30Z</time>
      </trkpt>
      <trkpt lat="49.08099" lon="6.08477">
        <ele>171</ele>
        <time>2019-05-21T15:39:42Z</time>
      </trkpt>
      <trkpt lat="49.08101" lon="6.08479">
        <ele>171</ele>
        <time>2019-05-21T15:39:43Z</time>
      </trkpt>
      <trkpt lat="49.08112" lon="6.08484">
        <ele>171</ele>
        <time>2019-05-21T15:39:47Z</time>
      </trkpt>
      <trkpt lat="49.08134" lon="6.08505">
        <ele>171</ele>
        <time>2019-05-21T15:39:53Z</time>
      </trkpt>
      <trkpt lat="49.08182" lon="6.08549">
        <ele>171</ele>
        <time>2019-05-21T15:40:06Z</time>
      </trkpt>
      <trkpt lat="49.08209" lon="6.08578">
        <ele>171</ele>
        <time>2019-05-21T15:40:17Z</time>
      </trkpt>
      <trkpt lat="49.08228" lon="6.08594">
        <ele>171</ele>
        <time>2019-05-21T15:40:24Z</time>
      </trkpt>
      <trkpt lat="49.08236" lon="6.08607">
        <ele>171</ele>
        <time>2019-05-21T15:40:28Z</time>
      </trkpt>
      <trkpt lat="49.08289" lon="6.08656">
        <ele>171</ele>
        <time>2019-05-21T15:40:44Z</time>
      </trkpt>
      <trkpt lat="49.08318" lon="6.08682">
        <ele>171</ele>
        <time>2019-05-21T15:40:53Z</time>
      </trkpt>
      <trkpt lat="49.08325" lon="6.08689">
        <ele>171</ele>
        <time>2019-05-21T15:40:55Z</time>
      </trkpt>
      <trkpt lat="49.08369" lon="6.08725">
        <ele>170</ele>
        <time>2019-05-21T15:41:07Z</time>
      </trkpt>
      <trkpt lat="49.08447" lon="6.08804">
        <ele>168</ele>
        <time>2019-05-21T15:41:25Z</time>
      </trkpt>
      <trkpt lat="49.0852" lon="6.08866">
        <ele>169</ele>
        <time>2019-05-21T15:41:42Z</time>
      </trkpt>
      <trkpt lat="49.08566" lon="6.08909">
        <ele>169</ele>
        <time>2019-05-21T15:41:53Z</time>
      </trkpt>
      <trkpt lat="49.08613" lon="6.08953">
        <ele>169</ele>
        <time>2019-05-21T15:42:04Z</time>
      </trkpt>
      <trkpt lat="49.08704" lon="6.09038">
        <ele>169</ele>
        <time>2019-05-21T15:42:25Z</time>
      </trkpt>
      <trkpt lat="49.08791" lon="6.09109">
        <ele>169</ele>
        <time>2019-05-21T15:42:44Z</time>
      </trkpt>
      <trkpt lat="49.08874" lon="6.09175">
        <ele>169</ele>
        <time>2019-05-21T15:43:01Z</time>
      </trkpt>
      <trkpt lat="49.08951" lon="6.09236">
        <ele>169</ele>
        <time>2019-05-21T15:43:18Z</time>
      </trkpt>
      <trkpt lat="49.08955" lon="6.09239">
        <ele>169</ele>
        <time>2019-05-21T15:43:19Z</time>
      </trkpt>
      <trkpt lat="49.09" lon="6.0927">
        <ele>169</ele>
        <time>2019-05-21T15:43:34Z</time>
      </trkpt>
      <trkpt lat="49.09008" lon="6.09276">
        <ele>169</ele>
        <time>2019-05-21T15:43:37Z</time>
      </trkpt>
      <trkpt lat="49.09016" lon="6.09263">
        <ele>169</ele>
        <time>2019-05-21T15:43:41Z</time>
      </trkpt>
      <trkpt lat="49.09028" lon="6.09252">
        <ele>169</ele>
        <time>2019-05-21T15:43:45Z</time>
      </trkpt>
      <trkpt lat="49.09104" lon="6.09252">
        <ele>168</ele>
        <time>2019-05-21T15:44:01Z</time>
      </trkpt>
      <trkpt lat="49.09201" lon="6.09259">
        <ele>168</ele>
        <time>2019-05-21T15:44:20Z</time>
      </trkpt>
      <trkpt lat="49.09285" lon="6.09271">
        <ele>168</ele>
        <time>2019-05-21T15:44:38Z</time>
      </trkpt>
      <trkpt lat="49.09327" lon="6.09277">
        <ele>168</ele>
        <time>2019-05-21T15:44:51Z</time>
      </trkpt>
      <trkpt lat="49.09332" lon="6.0928">
        <ele>168</ele>
        <time>2019-05-21T15:44:54Z</time>
      </trkpt>
      <trkpt lat="49.09344" lon="6.09281">
        <ele>168</ele>
        <time>2019-05-21T15:44:58Z</time>
      </trkpt>
      <trkpt lat="49.0936" lon="6.09283">
        <ele>168</ele>
        <time>2019-05-21T15:45:02Z</time>
      </trkpt>
      <trkpt lat="49.09369" lon="6.09285">
        <ele>168</ele>
        <time>2019-05-21T15:45:04Z</time>
      </trkpt>
      <trkpt lat="49.09417" lon="6.09293">
        <ele>167</ele>
        <time>2019-05-21T15:45:17Z</time>
      </trkpt>
      <trkpt lat="49.09435" lon="6.09292">
        <ele>167</ele>
        <time>2019-05-21T15:45:21Z</time>
      </trkpt>
      <trkpt lat="49.09449" lon="6.0929">
        <ele>167</ele>
        <time>2019-05-21T15:45:24Z</time>
      </trkpt>
      <trkpt lat="49.09514" lon="6.09264">
        <ele>168</ele>
        <time>2019-05-21T15:45:38Z</time>
      </trkpt>
      <trkpt lat="49.09575" lon="6.0922">
        <ele>170</ele>
        <time>2019-05-21T15:45:52Z</time>
      </trkpt>
      <trkpt lat="49.09583" lon="6.09216">
        <ele>171</ele>
        <time>2019-05-21T15:45:54Z</time>
      </trkpt>
      <trkpt lat="49.09601" lon="6.09212">
        <ele>171</ele>
        <time>2019-05-21T15:45:58Z</time>
      </trkpt>
      <trkpt lat="49.0967" lon="6.09219">
        <ele>173</ele>
        <time>2019-05-21T15:46:13Z</time>
      </trkpt>
      <trkpt lat="49.09701" lon="6.09223">
        <ele>173</ele>
        <time>2019-05-21T15:46:20Z</time>
      </trkpt>
      <trkpt lat="49.09761" lon="6.09207">
        <ele>177</ele>
        <time>2019-05-21T15:46:36Z</time>
      </trkpt>
      <trkpt lat="49.09779" lon="6.09162">
        <ele>182</ele>
        <time>2019-05-21T15:46:47Z</time>
      </trkpt>
      <trkpt lat="49.09781" lon="6.09155">
        <ele>182</ele>
        <time>2019-05-21T15:46:50Z</time>
      </trkpt>
      <trkpt lat="49.09788" lon="6.09148">
        <ele>183</ele>
        <time>2019-05-21T15:46:58Z</time>
      </trkpt>
      <trkpt lat="49.09797" lon="6.09134">
        <ele>183</ele>
        <time>2019-05-21T15:47:13Z</time>
      </trkpt>
      <trkpt lat="49.098" lon="6.09129">
        <ele>183</ele>
        <time>2019-05-21T15:47:38Z</time>
      </trkpt>
      <trkpt lat="49.09814" lon="6.0911">
        <ele>184</ele>
        <time>2019-05-21T15:47:58Z</time>
      </trkpt>
      <trkpt lat="49.09825" lon="6.09098">
        <ele>185</ele>
        <time>2019-05-21T15:48:14Z</time>
      </trkpt>
      <trkpt lat="49.09833" lon="6.0909">
        <ele>185</ele>
        <time>2019-05-21T15:48:27Z</time>
      </trkpt>
      <trkpt lat="49.09839" lon="6.09085">
        <ele>187</ele>
        <time>2019-05-21T15:48:39Z</time>
      </trkpt>
      <trkpt lat="49.09852" lon="6.09081">
        <ele>191</ele>
        <time>2019-05-21T15:48:54Z</time>
      </trkpt>
      <trkpt lat="49.09863" lon="6.09081">
        <ele>193</ele>
        <time>2019-05-21T15:49:06Z</time>
      </trkpt>
      <trkpt lat="49.0988" lon="6.0908">
        <ele>195</ele>
        <time>2019-05-21T15:49:25Z</time>
      </trkpt>
      <trkpt lat="49.09893" lon="6.09084">
        <ele>196</ele>
        <time>2019-05-21T15:49:40Z</time>
      </trkpt>
      <trkpt lat="49.09908" lon="6.09088">
        <ele>199</ele>
        <time>2019-05-21T15:49:57Z</time>
      </trkpt>
      <trkpt lat="49.09923" lon="6.09089">
        <ele>202</ele>
        <time>2019-05-21T15:50:13Z</time>
      </trkpt>
      <trkpt lat="49.09935" lon="6.09094">
        <ele>203</ele>
        <time>2019-05-21T15:50:27Z</time>
      </trkpt>
      <trkpt lat="49.09943" lon="6.091">
        <ele>203</ele>
        <time>2019-05-21T15:50:37Z</time>
      </trkpt>
      <trkpt lat="49.09946" lon="6.09101">
        <ele>203</ele>
        <time>2019-05-21T15:50:40Z</time>
      </trkpt>
      <trkpt lat="49.09962" lon="6.09107">
        <ele>204</ele>
        <time>2019-05-21T15:50:57Z</time>
      </trkpt>
      <trkpt lat="49.09963" lon="6.09107">
        <ele>204</ele>
        <time>2019-05-21T15:50:59Z</time>
      </trkpt>
      <trkpt lat="49.09968" lon="6.091">
        <ele>204</ele>
        <time>2019-05-21T15:51:13Z</time>
      </trkpt>
      <trkpt lat="49.09972" lon="6.0909">
        <ele>205</ele>
        <time>2019-05-21T15:51:26Z</time>
      </trkpt>
      <trkpt lat="49.09973" lon="6.09087">
        <ele>205</ele>
        <time>2019-05-21T15:51:27Z</time>
      </trkpt>
      <trkpt lat="49.09987" lon="6.09044">
        <ele>207</ele>
        <time>2019-05-21T15:51:41Z</time>
      </trkpt>
      <trkpt lat="49.09991" lon="6.09004">
        <ele>209</ele>
        <time>2019-05-21T15:51:54Z</time>
      </trkpt>
      <trkpt lat="49.09985" lon="6.08969">
        <ele>210</ele>
        <time>2019-05-21T15:52:06Z</time>
      </trkpt>
      <trkpt lat="49.09976" lon="6.08921">
        <ele>211</ele>
        <time>2019-05-21T15:52:21Z</time>
      </trkpt>
      <trkpt lat="49.09981" lon="6.08863">
        <ele>215</ele>
        <time>2019-05-21T15:52:39Z</time>
      </trkpt>
      <trkpt lat="49.09999" lon="6.08834">
        <ele>219</ele>
        <time>2019-05-21T15:52:53Z</time>
      </trkpt>
      <trkpt lat="49.10014" lon="6.08814">
        <ele>221</ele>
        <time>2019-05-21T15:53:03Z</time>
      </trkpt>
      <trkpt lat="49.10027" lon="6.08824">
        <ele>222</ele>
        <time>2019-05-21T15:53:13Z</time>
      </trkpt>
      <trkpt lat="49.10051" lon="6.08845">
        <ele>220</ele>
        <time>2019-05-21T15:53:23Z</time>
      </trkpt>
      <trkpt lat="49.1008" lon="6.08799">
        <ele>223</ele>
        <time>2019-05-21T15:53:38Z</time>
      </trkpt>
      <trkpt lat="49.10088" lon="6.08767">
        <ele>226</ele>
        <time>2019-05-21T15:53:49Z</time>
      </trkpt>
      <trkpt lat="49.10109" lon="6.08722">
        <ele>230</ele>
        <time>2019-05-21T15:54:08Z</time>
      </trkpt>
      <trkpt lat="49.10126" lon="6.08682">
        <ele>232</ele>
        <time>2019-05-21T15:54:25Z</time>
      </trkpt>
      <trkpt lat="49.10129" lon="6.0867">
        <ele>232</ele>
        <time>2019-05-21T15:54:29Z</time>
      </trkpt>
      <trkpt lat="49.10135" lon="6.08671">
        <ele>232</ele>
        <time>2019-05-21T15:54:33Z</time>
      </trkpt>
      <trkpt lat="49.10159" lon="6.08689">
        <ele>232</ele>
        <time>2019-05-21T15:54:46Z</time>
      </trkpt>
      <trkpt lat="49.10167" lon="6.08697">
        <ele>234</ele>
        <time>2019-05-21T15:54:59Z</time>
      </trkpt>
      <trkpt lat="49.10169" lon="6.08696">
        <ele>234</ele>
        <time>2019-05-21T15:55:11Z</time>
      </trkpt>
      <trkpt lat="49.10169" lon="6.08695">
        <ele>234</ele>
        <time>2019-05-21T15:55:27Z</time>
      </trkpt>
    </trkseg>
  </trk>
</gpx>